<?xml version="1.0" encoding="UTF-8" standalone="no" ?><gpx xmlns="http://www.topografix.com/GPX/1/1" xmlns:gpxx="http://www.garmin.com/xmlschemas/GpxExtensions/v3" xmlns:wptx1="http://www.garmin.com/xmlschemas/WaypointExtension/v1" xmlns:gpxtpx="http://www.garmin.com/xmlschemas/TrackPointExtension/v1" creator="GuideVTT.com" version="1.1" xmlns:xsi="http://www.w3.org/2001/XMLSchema-instance" xsi:schemaLocation="http://www.topografix.com/GPX/1/1 http://www.topografix.com/GPX/1/1/gpx.xsd http://www.garmin.com/xmlschemas/GpxExtensions/v3 http://www8.garmin.com/xmlschemas/GpxExtensionsv3.xsd http://www.garmin.com/xmlschemas/WaypointExtension/v1 http://www8.garmin.com/xmlschemas/WaypointExtensionv1.xsd http://www.garmin.com/xmlschemas/TrackPointExtension/v1 http://www.garmin.com/xmlschemas/TrackPointExtensionv1.xsd">
<metadata><link href="http://www.garmin.com"><text>Garmin International</text></link><time>2013-06-22T15:13:50Z</time></metadata>
<trk><name>1_montana.gpx</name><extensions><gpxx:TrackExtension><gpxx:DisplayColor>Cyan</gpxx:DisplayColor></gpxx:TrackExtension></extensions><trkseg>
<trkpt lat="46.30825667" lon="7.46564389"><ele>501.464844</ele><time>2009-05-21T20:04:14Z</time></trkpt>
<trkpt lat="46.30825667" lon="7.46564389"><ele>499.061523</ele><time>2009-05-21T20:04:16Z</time></trkpt>
<trkpt lat="46.30825667" lon="7.46564389"><ele>497.619629</ele><time>2009-05-21T20:04:25Z</time></trkpt>
<trkpt lat="46.30825667" lon="7.46564389"><ele>1399.336182</ele><time>2009-05-22T10:03:16Z</time></trkpt>
<trkpt lat="46.30825667" lon="7.46564389"><ele>1375.783936</ele><time>2009-05-22T10:03:17Z</time></trkpt>
<trkpt lat="46.26966957" lon="7.30048897"><ele>1375.783936</ele><time>2009-05-22T10:03:52Z</time></trkpt>
<trkpt lat="46.26967066" lon="7.30049165"><ele>1379.62915</ele><time>2009-05-22T10:03:59Z</time></trkpt>
<trkpt lat="46.26967108" lon="7.30049173"><ele>1381.071289</ele><time>2009-05-22T10:04:02Z</time></trkpt>
<trkpt lat="46.26967133" lon="7.30049198"><ele>1382.993652</ele><time>2009-05-22T10:04:04Z</time></trkpt>
<trkpt lat="46.26967150" lon="7.30049215"><ele>1385.396973</ele><time>2009-05-22T10:04:08Z</time></trkpt>
<trkpt lat="46.26967175" lon="7.30049232"><ele>1386.838867</ele><time>2009-05-22T10:04:11Z</time></trkpt>
<trkpt lat="46.26967175" lon="7.30049257"><ele>1389.242432</ele><time>2009-05-22T10:04:14Z</time></trkpt>
<trkpt lat="46.26967208" lon="7.30049266"><ele>1391.165039</ele><time>2009-05-22T10:04:20Z</time></trkpt>
<trkpt lat="46.26967108" lon="7.30049224"><ele>1394.049072</ele><time>2009-05-22T10:04:25Z</time></trkpt>
<trkpt lat="46.26967192" lon="7.30049299"><ele>1396.932861</ele><time>2009-05-22T10:04:33Z</time></trkpt>
<trkpt lat="46.26967368" lon="7.30049450"><ele>1400.297607</ele><time>2009-05-22T10:04:47Z</time></trkpt>
<trkpt lat="46.26967368" lon="7.30049802"><ele>1403.662109</ele><time>2009-05-22T10:05:08Z</time></trkpt>
<trkpt lat="46.26967410" lon="7.30051990"><ele>1404.623535</ele><time>2009-05-22T10:05:30Z</time></trkpt>
<trkpt lat="46.26967435" lon="7.30055460"><ele>1403.662109</ele><time>2009-05-22T10:05:46Z</time></trkpt>
<trkpt lat="46.26969807" lon="7.30055745"><ele>1404.143066</ele><time>2009-05-22T10:06:09Z</time></trkpt>
<trkpt lat="46.26976613" lon="7.30053783"><ele>1404.623535</ele><time>2009-05-22T10:06:19Z</time></trkpt>
<trkpt lat="46.26978063" lon="7.30051856"><ele>1405.584961</ele><time>2009-05-22T10:06:21Z</time></trkpt>
<trkpt lat="46.26990837" lon="7.30039199"><ele>1407.507568</ele><time>2009-05-22T10:06:36Z</time></trkpt>
<trkpt lat="46.26999965" lon="7.30028244"><ele>1408.949463</ele><time>2009-05-22T10:06:51Z</time></trkpt>
<trkpt lat="46.27011054" lon="7.30015587"><ele>1409.430176</ele><time>2009-05-22T10:07:10Z</time></trkpt>
<trkpt lat="46.27026058" lon="7.30006283"><ele>1412.313965</ele><time>2009-05-22T10:07:29Z</time></trkpt>
<trkpt lat="46.27034985" lon="7.29999133"><ele>1414.717285</ele><time>2009-05-22T10:07:47Z</time></trkpt>
<trkpt lat="46.27044339" lon="7.29989880"><ele>1417.120605</ele><time>2009-05-22T10:08:04Z</time></trkpt>
<trkpt lat="46.27050382" lon="7.29984784"><ele>1418.5625</ele><time>2009-05-22T10:08:17Z</time></trkpt>
<trkpt lat="46.27057674" lon="7.29981154"><ele>1420.966064</ele><time>2009-05-22T10:08:31Z</time></trkpt>
<trkpt lat="46.27063885" lon="7.29975555"><ele>1424.330566</ele><time>2009-05-22T10:08:47Z</time></trkpt>
<trkpt lat="46.27069468" lon="7.29965958"><ele>1426.253174</ele><time>2009-05-22T10:09:03Z</time></trkpt>
<trkpt lat="46.27077254" lon="7.29958096"><ele>1428.656494</ele><time>2009-05-22T10:09:21Z</time></trkpt>
<trkpt lat="46.27080205" lon="7.29952765"><ele>1432.020996</ele><time>2009-05-22T10:09:29Z</time></trkpt>
<trkpt lat="46.27087916" lon="7.29943503"><ele>1433.462891</ele><time>2009-05-22T10:09:45Z</time></trkpt>
<trkpt lat="46.27094362" lon="7.29931424"><ele>1435.385498</ele><time>2009-05-22T10:09:58Z</time></trkpt>
<trkpt lat="46.27096089" lon="7.29927267"><ele>1437.30835</ele><time>2009-05-22T10:10:02Z</time></trkpt>
<trkpt lat="46.27100036" lon="7.29921735"><ele>1438.269775</ele><time>2009-05-22T10:10:16Z</time></trkpt>
<trkpt lat="46.27102559" lon="7.29911040"><ele>1440.672852</ele><time>2009-05-22T10:10:28Z</time></trkpt>
<trkpt lat="46.27102937" lon="7.29906740"><ele>1443.556885</ele><time>2009-05-22T10:10:44Z</time></trkpt>
<trkpt lat="46.27104135" lon="7.29896178"><ele>1445.479492</ele><time>2009-05-22T10:10:59Z</time></trkpt>
<trkpt lat="46.27109374" lon="7.29885944"><ele>1448.843994</ele><time>2009-05-22T10:11:12Z</time></trkpt>
<trkpt lat="46.27116390" lon="7.29877084"><ele>1451.728027</ele><time>2009-05-22T10:11:22Z</time></trkpt>
<trkpt lat="46.27116968" lon="7.29876028"><ele>1451.728027</ele><time>2009-05-22T10:11:23Z</time></trkpt>
<trkpt lat="46.27121452" lon="7.29862190"><ele>1453.650879</ele><time>2009-05-22T10:11:38Z</time></trkpt>
<trkpt lat="46.27123992" lon="7.29853615"><ele>1455.573486</ele><time>2009-05-22T10:11:54Z</time></trkpt>
<trkpt lat="46.27124093" lon="7.29845242"><ele>1456.534668</ele><time>2009-05-22T10:12:10Z</time></trkpt>
<trkpt lat="46.27128719" lon="7.29837589"><ele>1458.457275</ele><time>2009-05-22T10:12:25Z</time></trkpt>
<trkpt lat="46.27134092" lon="7.29826206"><ele>1461.822021</ele><time>2009-05-22T10:12:39Z</time></trkpt>
<trkpt lat="46.27134344" lon="7.29825418"><ele>1461.822021</ele><time>2009-05-22T10:12:40Z</time></trkpt>
<trkpt lat="46.27136213" lon="7.29817037"><ele>1465.186523</ele><time>2009-05-22T10:12:50Z</time></trkpt>
<trkpt lat="46.27136364" lon="7.29816165"><ele>1465.186523</ele><time>2009-05-22T10:12:51Z</time></trkpt>
<trkpt lat="46.27139968" lon="7.29805495"><ele>1468.55127</ele><time>2009-05-22T10:13:04Z</time></trkpt>
<trkpt lat="46.27144435" lon="7.29795403"><ele>1470.95459</ele><time>2009-05-22T10:13:17Z</time></trkpt>
<trkpt lat="46.27149506" lon="7.29785110"><ele>1473.838379</ele><time>2009-05-22T10:13:34Z</time></trkpt>
<trkpt lat="46.27153932" lon="7.29777684"><ele>1476.722412</ele><time>2009-05-22T10:13:47Z</time></trkpt>
<trkpt lat="46.27162876" lon="7.29766418"><ele>1480.086914</ele><time>2009-05-22T10:14:03Z</time></trkpt>
<trkpt lat="46.27163253" lon="7.29765714"><ele>1480.086914</ele><time>2009-05-22T10:14:04Z</time></trkpt>
<trkpt lat="46.27170696" lon="7.29759595"><ele>1482.490234</ele><time>2009-05-22T10:14:18Z</time></trkpt>
<trkpt lat="46.27177728" lon="7.29757190"><ele>1485.374268</ele><time>2009-05-22T10:14:30Z</time></trkpt>
<trkpt lat="46.27183252" lon="7.29748799"><ele>1487.777588</ele><time>2009-05-22T10:14:41Z</time></trkpt>
<trkpt lat="46.27192615" lon="7.29737509"><ele>1489.700195</ele><time>2009-05-22T10:14:57Z</time></trkpt>
<trkpt lat="46.27199806" lon="7.29729563"><ele>1493.064697</ele><time>2009-05-22T10:15:08Z</time></trkpt>
<trkpt lat="46.27210409" lon="7.29723545"><ele>1496.429443</ele><time>2009-05-22T10:15:23Z</time></trkpt>
<trkpt lat="46.27219923" lon="7.29716437"><ele>1499.313232</ele><time>2009-05-22T10:15:39Z</time></trkpt>
<trkpt lat="46.27224047" lon="7.29715825"><ele>1499.793945</ele><time>2009-05-22T10:15:58Z</time></trkpt>
<trkpt lat="46.27220887" lon="7.29717828"><ele>1500.274902</ele><time>2009-05-22T10:16:20Z</time></trkpt>
<trkpt lat="46.27224784" lon="7.29717795"><ele>1500.274902</ele><time>2009-05-22T10:16:29Z</time></trkpt>
<trkpt lat="46.27243367" lon="7.29716387"><ele>1502.677979</ele><time>2009-05-22T10:16:48Z</time></trkpt>
<trkpt lat="46.27261229" lon="7.29716085"><ele>1504.120117</ele><time>2009-05-22T10:17:06Z</time></trkpt>
<trkpt lat="46.27274305" lon="7.29717853"><ele>1506.523193</ele><time>2009-05-22T10:17:23Z</time></trkpt>
<trkpt lat="46.27287079" lon="7.29714953"><ele>1508.926514</ele><time>2009-05-22T10:17:39Z</time></trkpt>
<trkpt lat="46.27299928" lon="7.29713143"><ele>1512.771729</ele><time>2009-05-22T10:17:55Z</time></trkpt>
<trkpt lat="46.27301060" lon="7.29712975"><ele>1512.771729</ele><time>2009-05-22T10:17:56Z</time></trkpt>
<trkpt lat="46.27318184" lon="7.29703747"><ele>1514.694336</ele><time>2009-05-22T10:18:13Z</time></trkpt>
<trkpt lat="46.27330874" lon="7.29693479"><ele>1516.617188</ele><time>2009-05-22T10:18:26Z</time></trkpt>
<trkpt lat="46.27348032" lon="7.29688919"><ele>1518.059082</ele><time>2009-05-22T10:18:45Z</time></trkpt>
<trkpt lat="46.27364762" lon="7.29696102"><ele>1519.981689</ele><time>2009-05-22T10:19:02Z</time></trkpt>
<trkpt lat="46.27369707" lon="7.29700746"><ele>1520.943115</ele><time>2009-05-22T10:19:08Z</time></trkpt>
<trkpt lat="46.27374644" lon="7.29708918"><ele>1520.943115</ele><time>2009-05-22T10:19:25Z</time></trkpt>
<trkpt lat="46.27379514" lon="7.29718549"><ele>1522.38501</ele><time>2009-05-22T10:19:39Z</time></trkpt>
<trkpt lat="46.27383303" lon="7.29725556"><ele>1522.865723</ele><time>2009-05-22T10:19:46Z</time></trkpt>
<trkpt lat="46.27402104" lon="7.29738934"><ele>1525.268799</ele><time>2009-05-22T10:20:05Z</time></trkpt>
<trkpt lat="46.27408189" lon="7.29744776"><ele>1526.230225</ele><time>2009-05-22T10:20:12Z</time></trkpt>
<trkpt lat="46.27418146" lon="7.29758958"><ele>1528.152832</ele><time>2009-05-22T10:20:27Z</time></trkpt>
<trkpt lat="46.27439135" lon="7.29769209"><ele>1528.152832</ele><time>2009-05-22T10:20:45Z</time></trkpt>
<trkpt lat="46.27457659" lon="7.29767499"><ele>1531.517334</ele><time>2009-05-22T10:21:02Z</time></trkpt>
<trkpt lat="46.27476820" lon="7.29758615"><ele>1533.440186</ele><time>2009-05-22T10:21:20Z</time></trkpt>
<trkpt lat="46.27492670" lon="7.29752705"><ele>1535.843506</ele><time>2009-05-22T10:21:37Z</time></trkpt>
<trkpt lat="46.27501169" lon="7.29751767"><ele>1536.324219</ele><time>2009-05-22T10:21:46Z</time></trkpt>
<trkpt lat="46.27513516" lon="7.29760995"><ele>1539.688721</ele><time>2009-05-22T10:22:00Z</time></trkpt>
<trkpt lat="46.27524429" lon="7.29777616"><ele>1540.649902</ele><time>2009-05-22T10:22:17Z</time></trkpt>
<trkpt lat="46.27532576" lon="7.29792226"><ele>1543.053223</ele><time>2009-05-22T10:22:31Z</time></trkpt>
<trkpt lat="46.27536474" lon="7.29809862"><ele>1545.937256</ele><time>2009-05-22T10:22:46Z</time></trkpt>
<trkpt lat="46.27550924" lon="7.29826047"><ele>1547.37915</ele><time>2009-05-22T10:23:02Z</time></trkpt>
<trkpt lat="46.27569180" lon="7.29836952"><ele>1547.37915</ele><time>2009-05-22T10:23:20Z</time></trkpt>
<trkpt lat="46.27583756" lon="7.29845376"><ele>1548.821289</ele><time>2009-05-22T10:23:36Z</time></trkpt>
<trkpt lat="46.27586304" lon="7.29847538"><ele>1549.302002</ele><time>2009-05-22T10:23:39Z</time></trkpt>
<trkpt lat="46.27602657" lon="7.29856314"><ele>1551.224609</ele><time>2009-05-22T10:23:55Z</time></trkpt>
<trkpt lat="46.27619019" lon="7.29866674"><ele>1553.147217</ele><time>2009-05-22T10:24:10Z</time></trkpt>
<trkpt lat="46.27634324" lon="7.29876699"><ele>1555.069824</ele><time>2009-05-22T10:24:28Z</time></trkpt>
<trkpt lat="46.27650082" lon="7.29883639"><ele>1556.992432</ele><time>2009-05-22T10:24:45Z</time></trkpt>
<trkpt lat="46.27665019" lon="7.29887478"><ele>1558.434326</ele><time>2009-05-22T10:25:00Z</time></trkpt>
<trkpt lat="46.27682336" lon="7.29893614"><ele>1560.356934</ele><time>2009-05-22T10:25:17Z</time></trkpt>
<trkpt lat="46.27688505" lon="7.29894225"><ele>1561.318359</ele><time>2009-05-22T10:25:22Z</time></trkpt>
<trkpt lat="46.27704539" lon="7.29899590"><ele>1564.202393</ele><time>2009-05-22T10:25:37Z</time></trkpt>
<trkpt lat="46.27708177" lon="7.29900462"><ele>1564.202393</ele><time>2009-05-22T10:25:40Z</time></trkpt>
<trkpt lat="46.27726014" lon="7.29906832"><ele>1566.125</ele><time>2009-05-22T10:25:56Z</time></trkpt>
<trkpt lat="46.27734446" lon="7.29915314"><ele>1567.566895</ele><time>2009-05-22T10:26:08Z</time></trkpt>
<trkpt lat="46.27744529" lon="7.29928767"><ele>1569.970215</ele><time>2009-05-22T10:26:23Z</time></trkpt>
<trkpt lat="46.27759734" lon="7.29942966"><ele>1572.854248</ele><time>2009-05-22T10:26:41Z</time></trkpt>
<trkpt lat="46.27767496" lon="7.29948088"><ele>1573.81543</ele><time>2009-05-22T10:26:49Z</time></trkpt>
<trkpt lat="46.27788937" lon="7.29960417"><ele>1575.738037</ele><time>2009-05-22T10:27:09Z</time></trkpt>
<trkpt lat="46.27804016" lon="7.29975689"><ele>1576.21875</ele><time>2009-05-22T10:27:27Z</time></trkpt>
<trkpt lat="46.27815658" lon="7.29994012"><ele>1577.180176</ele><time>2009-05-22T10:27:43Z</time></trkpt>
<trkpt lat="46.27832196" lon="7.30011262"><ele>1577.180176</ele><time>2009-05-22T10:27:59Z</time></trkpt>
<trkpt lat="46.27846923" lon="7.30025796"><ele>1577.180176</ele><time>2009-05-22T10:28:15Z</time></trkpt>
<trkpt lat="46.27846730" lon="7.30051646"><ele>1576.21875</ele><time>2009-05-22T10:28:32Z</time></trkpt>
<trkpt lat="46.27846009" lon="7.30056189"><ele>1575.738037</ele><time>2009-05-22T10:28:35Z</time></trkpt>
<trkpt lat="46.27838516" lon="7.30080295"><ele>1573.81543</ele><time>2009-05-22T10:28:52Z</time></trkpt>
<trkpt lat="46.27837577" lon="7.30109062"><ele>1571.412109</ele><time>2009-05-22T10:29:09Z</time></trkpt>
<trkpt lat="46.27837468" lon="7.30110546"><ele>1570.931641</ele><time>2009-05-22T10:29:10Z</time></trkpt>
<trkpt lat="46.27834082" lon="7.30137737"><ele>1569.489746</ele><time>2009-05-22T10:29:24Z</time></trkpt>
<trkpt lat="46.27830318" lon="7.30159094"><ele>1568.047607</ele><time>2009-05-22T10:29:40Z</time></trkpt>
<trkpt lat="46.27829597" lon="7.30173326"><ele>1568.047607</ele><time>2009-05-22T10:30:00Z</time></trkpt>
<trkpt lat="46.27828072" lon="7.30200425"><ele>1565.644531</ele><time>2009-05-22T10:30:18Z</time></trkpt>
<trkpt lat="46.27821123" lon="7.30227867"><ele>1564.683105</ele><time>2009-05-22T10:30:35Z</time></trkpt>
<trkpt lat="46.27816999" lon="7.30240205"><ele>1563.240967</ele><time>2009-05-22T10:30:46Z</time></trkpt>
<trkpt lat="46.27811434" lon="7.30253633"><ele>1562.760254</ele><time>2009-05-22T10:30:59Z</time></trkpt>
<trkpt lat="46.27807737" lon="7.30259048"><ele>1562.279541</ele><time>2009-05-22T10:31:06Z</time></trkpt>
<trkpt lat="46.27797855" lon="7.30275619"><ele>1560.356934</ele><time>2009-05-22T10:31:21Z</time></trkpt>
<trkpt lat="46.27791200" lon="7.30288954"><ele>1557.953857</ele><time>2009-05-22T10:31:33Z</time></trkpt>
<trkpt lat="46.27786363" lon="7.30312767"><ele>1555.550537</ele><time>2009-05-22T10:31:50Z</time></trkpt>
<trkpt lat="46.27786095" lon="7.30315416"><ele>1554.589111</ele><time>2009-05-22T10:31:52Z</time></trkpt>
<trkpt lat="46.27786456" lon="7.30323915"><ele>1553.62793</ele><time>2009-05-22T10:32:11Z</time></trkpt>
<trkpt lat="46.27785584" lon="7.30332037"><ele>1551.705322</ele><time>2009-05-22T10:32:50Z</time></trkpt>
<trkpt lat="46.27789565" lon="7.30337343"><ele>1551.224609</ele><time>2009-05-22T10:33:07Z</time></trkpt>
<trkpt lat="46.27797578" lon="7.30342205"><ele>1550.263428</ele><time>2009-05-22T10:33:29Z</time></trkpt>
<trkpt lat="46.27804929" lon="7.30349723"><ele>1549.302002</ele><time>2009-05-22T10:33:40Z</time></trkpt>
<trkpt lat="46.27819363" lon="7.30357074"><ele>1549.302002</ele><time>2009-05-22T10:33:55Z</time></trkpt>
<trkpt lat="46.27829103" lon="7.30357485"><ele>1547.859863</ele><time>2009-05-22T10:34:02Z</time></trkpt>
<trkpt lat="46.27831114" lon="7.30353252"><ele>1546.417969</ele><time>2009-05-22T10:34:16Z</time></trkpt>
<trkpt lat="46.27838667" lon="7.30354484"><ele>1544.495117</ele><time>2009-05-22T10:34:26Z</time></trkpt>
<trkpt lat="46.27846965" lon="7.30355155"><ele>1543.053223</ele><time>2009-05-22T10:34:33Z</time></trkpt>
<trkpt lat="46.27858942" lon="7.30352959"><ele>1541.130615</ele><time>2009-05-22T10:34:45Z</time></trkpt>
<trkpt lat="46.27873904" lon="7.30340947"><ele>1539.688721</ele><time>2009-05-22T10:35:00Z</time></trkpt>
<trkpt lat="46.27885102" lon="7.30329087"><ele>1538.246826</ele><time>2009-05-22T10:35:12Z</time></trkpt>
<trkpt lat="46.27888120" lon="7.30327612"><ele>1538.727539</ele><time>2009-05-22T10:35:35Z</time></trkpt>
<trkpt lat="46.27893057" lon="7.30328576"><ele>1537.2854</ele><time>2009-05-22T10:36:07Z</time></trkpt>
<trkpt lat="46.27893534" lon="7.30329749"><ele>1537.2854</ele><time>2009-05-22T10:36:19Z</time></trkpt>
<trkpt lat="46.27906526" lon="7.30342967"><ele>1535.362793</ele><time>2009-05-22T10:36:35Z</time></trkpt>
<trkpt lat="46.27917624" lon="7.30359295"><ele>1533.440186</ele><time>2009-05-22T10:36:50Z</time></trkpt>
<trkpt lat="46.27924883" lon="7.30371273"><ele>1531.998047</ele><time>2009-05-22T10:37:05Z</time></trkpt>
<trkpt lat="46.27930105" lon="7.30382555"><ele>1531.036865</ele><time>2009-05-22T10:37:20Z</time></trkpt>
<trkpt lat="46.27932594" lon="7.30389588"><ele>1530.556152</ele><time>2009-05-22T10:37:36Z</time></trkpt>
<trkpt lat="46.27936567" lon="7.30392840"><ele>1530.075439</ele><time>2009-05-22T10:37:41Z</time></trkpt>
<trkpt lat="46.27938705" lon="7.30393569"><ele>1529.594727</ele><time>2009-05-22T10:37:43Z</time></trkpt>
<trkpt lat="46.27955225" lon="7.30390585"><ele>1527.672119</ele><time>2009-05-22T10:38:01Z</time></trkpt>
<trkpt lat="46.27961126" lon="7.30392999"><ele>1526.710938</ele><time>2009-05-22T10:38:12Z</time></trkpt>
<trkpt lat="46.27964898" lon="7.30390719"><ele>1528.152832</ele><time>2009-05-22T10:38:19Z</time></trkpt>
<trkpt lat="46.27968368" lon="7.30392504"><ele>1527.672119</ele><time>2009-05-22T10:38:32Z</time></trkpt>
<trkpt lat="46.27967714" lon="7.30394172"><ele>1527.19165</ele><time>2009-05-22T10:38:35Z</time></trkpt>
<trkpt lat="46.27960162" lon="7.30394768"><ele>1526.710938</ele><time>2009-05-22T10:38:47Z</time></trkpt>
<trkpt lat="46.27964035" lon="7.30396369"><ele>1525.268799</ele><time>2009-05-22T10:39:00Z</time></trkpt>
<trkpt lat="46.27966826" lon="7.30398456"><ele>1525.268799</ele><time>2009-05-22T10:39:04Z</time></trkpt>
<trkpt lat="46.27973146" lon="7.30410165"><ele>1523.346436</ele><time>2009-05-22T10:39:17Z</time></trkpt>
<trkpt lat="46.27980522" lon="7.30432059"><ele>1521.904297</ele><time>2009-05-22T10:39:33Z</time></trkpt>
<trkpt lat="46.27981704" lon="7.30440399"><ele>1521.904297</ele><time>2009-05-22T10:39:38Z</time></trkpt>
<trkpt lat="46.27981746" lon="7.30444003"><ele>1521.904297</ele><time>2009-05-22T10:39:40Z</time></trkpt>
<trkpt lat="46.27984956" lon="7.30481386"><ele>1522.38501</ele><time>2009-05-22T10:40:01Z</time></trkpt>
<trkpt lat="46.27987487" lon="7.30513497"><ele>1521.423584</ele><time>2009-05-22T10:40:19Z</time></trkpt>
<trkpt lat="46.27989960" lon="7.30547486"><ele>1521.423584</ele><time>2009-05-22T10:40:38Z</time></trkpt>
<trkpt lat="46.27991536" lon="7.30585615"><ele>1522.865723</ele><time>2009-05-22T10:40:58Z</time></trkpt>
<trkpt lat="46.27994662" lon="7.30608992"><ele>1522.865723</ele><time>2009-05-22T10:41:16Z</time></trkpt>
<trkpt lat="46.27997118" lon="7.30615673"><ele>1522.38501</ele><time>2009-05-22T10:41:32Z</time></trkpt>
<trkpt lat="46.27999247" lon="7.30616452"><ele>1522.38501</ele><time>2009-05-22T10:41:35Z</time></trkpt>
<trkpt lat="46.28008149" lon="7.30617408"><ele>1520.462402</ele><time>2009-05-22T10:41:44Z</time></trkpt>
<trkpt lat="46.28016665" lon="7.30614013"><ele>1519.020508</ele><time>2009-05-22T10:41:51Z</time></trkpt>
<trkpt lat="46.28031350" lon="7.30613166"><ele>1518.059082</ele><time>2009-05-22T10:42:07Z</time></trkpt>
<trkpt lat="46.28033169" lon="7.30613586"><ele>1518.059082</ele><time>2009-05-22T10:42:09Z</time></trkpt>
<trkpt lat="46.28042255" lon="7.30621180"><ele>1516.617188</ele><time>2009-05-22T10:42:20Z</time></trkpt>
<trkpt lat="46.28049438" lon="7.30628069"><ele>1515.655762</ele><time>2009-05-22T10:42:31Z</time></trkpt>
<trkpt lat="46.28052103" lon="7.30647574"><ele>1515.655762</ele><time>2009-05-22T10:42:43Z</time></trkpt>
<trkpt lat="46.28051877" lon="7.30665377"><ele>1515.655762</ele><time>2009-05-22T10:42:55Z</time></trkpt>
<trkpt lat="46.28055389" lon="7.30688453"><ele>1514.694336</ele><time>2009-05-22T10:43:10Z</time></trkpt>
<trkpt lat="46.28055657" lon="7.30706365"><ele>1514.213623</ele><time>2009-05-22T10:43:21Z</time></trkpt>
<trkpt lat="46.28054886" lon="7.30711034"><ele>1514.213623</ele><time>2009-05-22T10:43:24Z</time></trkpt>
<trkpt lat="46.28057728" lon="7.30735165"><ele>1513.73291</ele><time>2009-05-22T10:43:38Z</time></trkpt>
<trkpt lat="46.28059077" lon="7.30765147"><ele>1511.329834</ele><time>2009-05-22T10:43:53Z</time></trkpt>
<trkpt lat="46.28059379" lon="7.30773604"><ele>1510.849121</ele><time>2009-05-22T10:43:58Z</time></trkpt>
<trkpt lat="46.28061139" lon="7.30778164"><ele>1509.887695</ele><time>2009-05-22T10:44:02Z</time></trkpt>
<trkpt lat="46.28069848" lon="7.30781525"><ele>1509.407227</ele><time>2009-05-22T10:44:08Z</time></trkpt>
<trkpt lat="46.28073494" lon="7.30784560"><ele>1508.445801</ele><time>2009-05-22T10:44:21Z</time></trkpt>
<trkpt lat="46.28079495" lon="7.30778592"><ele>1507.003906</ele><time>2009-05-22T10:44:38Z</time></trkpt>
<trkpt lat="46.28084810" lon="7.30773060"><ele>1505.081299</ele><time>2009-05-22T10:44:55Z</time></trkpt>
<trkpt lat="46.28096812" lon="7.30769346"><ele>1502.677979</ele><time>2009-05-22T10:45:08Z</time></trkpt>
<trkpt lat="46.28097634" lon="7.30769539"><ele>1502.677979</ele><time>2009-05-22T10:45:09Z</time></trkpt>
<trkpt lat="46.28111003" lon="7.30762322"><ele>1500.274902</ele><time>2009-05-22T10:45:22Z</time></trkpt>
<trkpt lat="46.28121564" lon="7.30760319"><ele>1498.351807</ele><time>2009-05-22T10:45:36Z</time></trkpt>
<trkpt lat="46.28127423" lon="7.30755248"><ele>1496.909912</ele><time>2009-05-22T10:45:46Z</time></trkpt>
<trkpt lat="46.28136006" lon="7.30748802"><ele>1494.026123</ele><time>2009-05-22T10:45:55Z</time></trkpt>
<trkpt lat="46.28149652" lon="7.30740203"><ele>1490.661377</ele><time>2009-05-22T10:46:08Z</time></trkpt>
<trkpt lat="46.28165787" lon="7.30753304"><ele>1487.296875</ele><time>2009-05-22T10:46:24Z</time></trkpt>
<trkpt lat="46.28168176" lon="7.30764267"><ele>1486.335693</ele><time>2009-05-22T10:46:32Z</time></trkpt>
<trkpt lat="46.28176164" lon="7.30774024"><ele>1485.374268</ele><time>2009-05-22T10:46:40Z</time></trkpt>
<trkpt lat="46.28182249" lon="7.30783294"><ele>1483.451416</ele><time>2009-05-22T10:46:49Z</time></trkpt>
<trkpt lat="46.28197387" lon="7.30784853"><ele>1482.009521</ele><time>2009-05-22T10:46:59Z</time></trkpt>
<trkpt lat="46.28209742" lon="7.30791508"><ele>1480.567627</ele><time>2009-05-22T10:47:10Z</time></trkpt>
<trkpt lat="46.28215249" lon="7.30794006"><ele>1480.567627</ele><time>2009-05-22T10:47:15Z</time></trkpt>
<trkpt lat="46.28229565" lon="7.30798390"><ele>1477.203125</ele><time>2009-05-22T10:47:29Z</time></trkpt>
<trkpt lat="46.28243940" lon="7.30804366"><ele>1475.280273</ele><time>2009-05-22T10:47:42Z</time></trkpt>
<trkpt lat="46.28249288" lon="7.30816335"><ele>1474.799805</ele><time>2009-05-22T10:47:59Z</time></trkpt>
<trkpt lat="46.28252749" lon="7.30824466"><ele>1475.280273</ele><time>2009-05-22T10:48:50Z</time></trkpt>
<trkpt lat="46.28245885" lon="7.30851347"><ele>1473.838379</ele><time>2009-05-22T10:49:08Z</time></trkpt>
<trkpt lat="46.28239347" lon="7.30875713"><ele>1472.877197</ele><time>2009-05-22T10:49:25Z</time></trkpt>
<trkpt lat="46.28236237" lon="7.30896944"><ele>1472.396484</ele><time>2009-05-22T10:49:39Z</time></trkpt>
<trkpt lat="46.28229523" lon="7.30914244"><ele>1471.435059</ele><time>2009-05-22T10:49:51Z</time></trkpt>
<trkpt lat="46.28227998" lon="7.30932106"><ele>1469.031982</ele><time>2009-05-22T10:50:04Z</time></trkpt>
<trkpt lat="46.28228023" lon="7.30938544"><ele>1470.473877</ele><time>2009-05-22T10:50:10Z</time></trkpt>
<trkpt lat="46.28226472" lon="7.30963748"><ele>1469.993164</ele><time>2009-05-22T10:50:24Z</time></trkpt>
<trkpt lat="46.28219130" lon="7.30981149"><ele>1470.95459</ele><time>2009-05-22T10:50:38Z</time></trkpt>
<trkpt lat="46.28214419" lon="7.30993127"><ele>1472.396484</ele><time>2009-05-22T10:50:49Z</time></trkpt>
<trkpt lat="46.28212986" lon="7.31000285"><ele>1472.396484</ele><time>2009-05-22T10:50:54Z</time></trkpt>
<trkpt lat="46.28216682" lon="7.31025766"><ele>1474.319092</ele><time>2009-05-22T10:51:10Z</time></trkpt>
<trkpt lat="46.28219549" lon="7.31037794"><ele>1476.241699</ele><time>2009-05-22T10:51:19Z</time></trkpt>
<trkpt lat="46.28220295" lon="7.31043267"><ele>1476.722412</ele><time>2009-05-22T10:51:22Z</time></trkpt>
<trkpt lat="46.28220588" lon="7.31049679"><ele>1476.722412</ele><time>2009-05-22T10:51:25Z</time></trkpt>
<trkpt lat="46.28222776" lon="7.31081002"><ele>1479.125488</ele><time>2009-05-22T10:51:43Z</time></trkpt>
<trkpt lat="46.28220756" lon="7.31115536"><ele>1478.64502</ele><time>2009-05-22T10:52:02Z</time></trkpt>
<trkpt lat="46.28223346" lon="7.31128335"><ele>1475.760986</ele><time>2009-05-22T10:52:16Z</time></trkpt>
<trkpt lat="46.28234854" lon="7.31136583"><ele>1472.396484</ele><time>2009-05-22T10:52:31Z</time></trkpt>
<trkpt lat="46.28238249" lon="7.31139625"><ele>1471.435059</ele><time>2009-05-22T10:52:35Z</time></trkpt>
<trkpt lat="46.28240352" lon="7.31149667"><ele>1471.435059</ele><time>2009-05-22T10:52:40Z</time></trkpt>
<trkpt lat="46.28238567" lon="7.31153313"><ele>1470.95459</ele><time>2009-05-22T10:52:43Z</time></trkpt>
<trkpt lat="46.28224444" lon="7.31150664"><ele>1469.512695</ele><time>2009-05-22T10:52:56Z</time></trkpt>
<trkpt lat="46.28210614" lon="7.31156029"><ele>1467.109131</ele><time>2009-05-22T10:53:09Z</time></trkpt>
<trkpt lat="46.28207722" lon="7.31156574"><ele>1466.147705</ele><time>2009-05-22T10:53:11Z</time></trkpt>
<trkpt lat="46.28197974" lon="7.31157135"><ele>1464.705811</ele><time>2009-05-22T10:53:22Z</time></trkpt>
<trkpt lat="46.28197513" lon="7.31157454"><ele>1464.705811</ele><time>2009-05-22T10:53:26Z</time></trkpt>
<trkpt lat="46.28204235" lon="7.31159306"><ele>1462.783203</ele><time>2009-05-22T10:53:45Z</time></trkpt>
<trkpt lat="46.28213849" lon="7.31164536"><ele>1460.379883</ele><time>2009-05-22T10:54:01Z</time></trkpt>
<trkpt lat="46.28222373" lon="7.31182633"><ele>1459.418701</ele><time>2009-05-22T10:54:15Z</time></trkpt>
<trkpt lat="46.28223153" lon="7.31187494"><ele>1457.976807</ele><time>2009-05-22T10:54:18Z</time></trkpt>
<trkpt lat="46.28226883" lon="7.31204677"><ele>1454.612061</ele><time>2009-05-22T10:54:29Z</time></trkpt>
<trkpt lat="46.28237159" lon="7.31226965"><ele>1451.728027</ele><time>2009-05-22T10:54:46Z</time></trkpt>
<trkpt lat="46.28238953" lon="7.31229169"><ele>1451.247314</ele><time>2009-05-22T10:54:48Z</time></trkpt>
<trkpt lat="46.28246337" lon="7.31237425"><ele>1449.324707</ele><time>2009-05-22T10:54:57Z</time></trkpt>
<trkpt lat="46.28261534" lon="7.31249688"><ele>1446.440918</ele><time>2009-05-22T10:55:14Z</time></trkpt>
<trkpt lat="46.28266336" lon="7.31254810"><ele>1445.479492</ele><time>2009-05-22T10:55:20Z</time></trkpt>
<trkpt lat="46.28272505" lon="7.31274448"><ele>1444.037598</ele><time>2009-05-22T10:55:34Z</time></trkpt>
<trkpt lat="46.28272723" lon="7.31277734"><ele>1443.076172</ele><time>2009-05-22T10:55:36Z</time></trkpt>
<trkpt lat="46.28273738" lon="7.31295923"><ele>1439.71167</ele><time>2009-05-22T10:55:47Z</time></trkpt>
<trkpt lat="46.28278264" lon="7.31315704"><ele>1437.789063</ele><time>2009-05-22T10:56:04Z</time></trkpt>
<trkpt lat="46.28279789" lon="7.31319836"><ele>1436.827637</ele><time>2009-05-22T10:56:08Z</time></trkpt>
<trkpt lat="46.28283570" lon="7.31335586"><ele>1434.905029</ele><time>2009-05-22T10:56:23Z</time></trkpt>
<trkpt lat="46.28280938" lon="7.31344085"><ele>1432.020996</ele><time>2009-05-22T10:56:33Z</time></trkpt>
<trkpt lat="46.28270175" lon="7.31356474"><ele>1428.175781</ele><time>2009-05-22T10:56:50Z</time></trkpt>
<trkpt lat="46.28266999" lon="7.31359567"><ele>1427.695068</ele><time>2009-05-22T10:56:54Z</time></trkpt>
<trkpt lat="46.28265054" lon="7.31361587"><ele>1426.733887</ele><time>2009-05-22T10:56:56Z</time></trkpt>
<trkpt lat="46.28256949" lon="7.31370077"><ele>1425.772461</ele><time>2009-05-22T10:57:13Z</time></trkpt>
<trkpt lat="46.28256672" lon="7.31370907"><ele>1425.772461</ele><time>2009-05-22T10:57:14Z</time></trkpt>
<trkpt lat="46.28252598" lon="7.31382399"><ele>1422.888672</ele><time>2009-05-22T10:57:22Z</time></trkpt>
<trkpt lat="46.28247930" lon="7.31401166"><ele>1421.446533</ele><time>2009-05-22T10:57:37Z</time></trkpt>
<trkpt lat="46.28245533" lon="7.31418164"><ele>1420.485352</ele><time>2009-05-22T10:57:51Z</time></trkpt>
<trkpt lat="46.28235323" lon="7.31448205"><ele>1418.081787</ele><time>2009-05-22T10:58:10Z</time></trkpt>
<trkpt lat="46.28224737" lon="7.31471423"><ele>1415.678711</ele><time>2009-05-22T10:58:26Z</time></trkpt>
<trkpt lat="46.28215215" lon="7.31505789"><ele>1415.678711</ele><time>2009-05-22T10:58:46Z</time></trkpt>
<trkpt lat="46.28214226" lon="7.31516954"><ele>1415.678711</ele><time>2009-05-22T10:59:03Z</time></trkpt>
<trkpt lat="46.28213237" lon="7.31531136"><ele>1416.15918</ele><time>2009-05-22T10:59:17Z</time></trkpt>
<trkpt lat="46.28211309" lon="7.31555812"><ele>1416.15918</ele><time>2009-05-22T10:59:33Z</time></trkpt>
<trkpt lat="46.28212290" lon="7.31570388"><ele>1416.639893</ele><time>2009-05-22T10:59:49Z</time></trkpt>
<trkpt lat="46.28212290" lon="7.31573087"><ele>1416.15918</ele><time>2009-05-22T10:59:52Z</time></trkpt>
<trkpt lat="46.28208686" lon="7.31577253"><ele>1414.717285</ele><time>2009-05-22T11:00:01Z</time></trkpt>
<trkpt lat="46.28203338" lon="7.31575007"><ele>1411.352783</ele><time>2009-05-22T11:00:14Z</time></trkpt>
<trkpt lat="46.28195216" lon="7.31578133"><ele>1407.988281</ele><time>2009-05-22T11:00:25Z</time></trkpt>
<trkpt lat="46.28187002" lon="7.31576524"><ele>1405.104248</ele><time>2009-05-22T11:00:39Z</time></trkpt>
<trkpt lat="46.28185770" lon="7.31576222"><ele>1404.623535</ele><time>2009-05-22T11:00:40Z</time></trkpt>
<trkpt lat="46.28174907" lon="7.31584696"><ele>1401.739502</ele><time>2009-05-22T11:00:54Z</time></trkpt>
<trkpt lat="46.28173582" lon="7.31584210"><ele>1401.258789</ele><time>2009-05-22T11:00:56Z</time></trkpt>
<trkpt lat="46.28165703" lon="7.31580086"><ele>1400.297607</ele><time>2009-05-22T11:01:11Z</time></trkpt>
<trkpt lat="46.28155804" lon="7.31577647"><ele>1398.374756</ele><time>2009-05-22T11:01:28Z</time></trkpt>
<trkpt lat="46.28154824" lon="7.31577496"><ele>1397.894287</ele><time>2009-05-22T11:01:30Z</time></trkpt>
<trkpt lat="46.28151052" lon="7.31578359"><ele>1396.932861</ele><time>2009-05-22T11:01:35Z</time></trkpt>
<trkpt lat="46.28145729" lon="7.31576029"><ele>1394.049072</ele><time>2009-05-22T11:01:43Z</time></trkpt>
<trkpt lat="46.28144799" lon="7.31575677"><ele>1394.049072</ele><time>2009-05-22T11:01:44Z</time></trkpt>
<trkpt lat="46.28133684" lon="7.31573406"><ele>1390.203857</ele><time>2009-05-22T11:01:56Z</time></trkpt>
<trkpt lat="46.28125009" lon="7.31574705"><ele>1388.28125</ele><time>2009-05-22T11:02:09Z</time></trkpt>
<trkpt lat="46.28115839" lon="7.31572928"><ele>1386.838867</ele><time>2009-05-22T11:02:17Z</time></trkpt>
<trkpt lat="46.28105186" lon="7.31565837"><ele>1385.396973</ele><time>2009-05-22T11:02:30Z</time></trkpt>
<trkpt lat="46.28095237" lon="7.31561059"><ele>1382.993652</ele><time>2009-05-22T11:02:42Z</time></trkpt>
<trkpt lat="46.28084633" lon="7.31559140"><ele>1381.551758</ele><time>2009-05-22T11:02:54Z</time></trkpt>
<trkpt lat="46.28076084" lon="7.31560280"><ele>1378.187256</ele><time>2009-05-22T11:03:00Z</time></trkpt>
<trkpt lat="46.28068079" lon="7.31560472"><ele>1376.745361</ele><time>2009-05-22T11:03:10Z</time></trkpt>
<trkpt lat="46.28057795" lon="7.31564169"><ele>1373.861328</ele><time>2009-05-22T11:03:24Z</time></trkpt>
<trkpt lat="46.28051324" lon="7.31566600"><ele>1372.419434</ele><time>2009-05-22T11:03:31Z</time></trkpt>
<trkpt lat="46.28043512" lon="7.31571377"><ele>1369.054688</ele><time>2009-05-22T11:03:42Z</time></trkpt>
<trkpt lat="46.28032213" lon="7.31579843"><ele>1366.651367</ele><time>2009-05-22T11:03:55Z</time></trkpt>
<trkpt lat="46.28019137" lon="7.31595685"><ele>1364.72876</ele><time>2009-05-22T11:04:09Z</time></trkpt>
<trkpt lat="46.28008584" lon="7.31605777"><ele>1362.325439</ele><time>2009-05-22T11:04:20Z</time></trkpt>
<trkpt lat="46.28000362" lon="7.31607595"><ele>1360.883545</ele><time>2009-05-22T11:04:36Z</time></trkpt>
<trkpt lat="46.27989792" lon="7.31611594"><ele>1359.44165</ele><time>2009-05-22T11:04:57Z</time></trkpt>
<trkpt lat="46.27976264" lon="7.31614569"><ele>1357.03833</ele><time>2009-05-22T11:05:12Z</time></trkpt>
<trkpt lat="46.27963322" lon="7.31618869"><ele>1353.673584</ele><time>2009-05-22T11:05:27Z</time></trkpt>
<trkpt lat="46.27952208" lon="7.31623094"><ele>1351.270264</ele><time>2009-05-22T11:05:39Z</time></trkpt>
<trkpt lat="46.27941236" lon="7.31625935"><ele>1350.309082</ele><time>2009-05-22T11:05:54Z</time></trkpt>
<trkpt lat="46.27935763" lon="7.31631350"><ele>1349.828369</ele><time>2009-05-22T11:06:10Z</time></trkpt>
<trkpt lat="46.27930063" lon="7.31629070"><ele>1349.828369</ele><time>2009-05-22T11:06:51Z</time></trkpt>
<trkpt lat="46.27930474" lon="7.31630176"><ele>1346.463867</ele><time>2009-05-22T11:06:59Z</time></trkpt>
<trkpt lat="46.27930775" lon="7.31630067"><ele>1351.270264</ele><time>2009-05-22T11:07:00Z</time></trkpt>
<trkpt lat="46.27931588" lon="7.31624234"><ele>1349.828369</ele><time>2009-05-22T11:07:23Z</time></trkpt>
<trkpt lat="46.27944849" lon="7.31607746"><ele>1349.347656</ele><time>2009-05-22T11:07:39Z</time></trkpt>
<trkpt lat="46.27960045" lon="7.31584017"><ele>1349.828369</ele><time>2009-05-22T11:07:57Z</time></trkpt>
<trkpt lat="46.27977530" lon="7.31562316"><ele>1348.866943</ele><time>2009-05-22T11:08:15Z</time></trkpt>
<trkpt lat="46.27996230" lon="7.31546198"><ele>1348.866943</ele><time>2009-05-22T11:08:33Z</time></trkpt>
<trkpt lat="46.28004896" lon="7.31539132"><ele>1348.38623</ele><time>2009-05-22T11:08:44Z</time></trkpt>
<trkpt lat="46.28005307" lon="7.31538436"><ele>1348.38623</ele><time>2009-05-22T11:08:45Z</time></trkpt>
<trkpt lat="46.28006682" lon="7.31533768"><ele>1348.866943</ele><time>2009-05-22T11:08:49Z</time></trkpt>
<trkpt lat="46.28014963" lon="7.31512813"><ele>1347.905762</ele><time>2009-05-22T11:09:04Z</time></trkpt>
<trkpt lat="46.28025072" lon="7.31495387"><ele>1347.425049</ele><time>2009-05-22T11:09:16Z</time></trkpt>
<trkpt lat="46.28037603" lon="7.31478757"><ele>1346.944336</ele><time>2009-05-22T11:09:28Z</time></trkpt>
<trkpt lat="46.28045306" lon="7.31467064"><ele>1345.983154</ele><time>2009-05-22T11:09:36Z</time></trkpt>
<trkpt lat="46.28045842" lon="7.31462572"><ele>1345.502441</ele><time>2009-05-22T11:09:44Z</time></trkpt>
<trkpt lat="46.28040654" lon="7.31464986"><ele>1345.983154</ele><time>2009-05-22T11:09:48Z</time></trkpt>
<trkpt lat="46.28032439" lon="7.31470426"><ele>1345.021729</ele><time>2009-05-22T11:09:54Z</time></trkpt>
<trkpt lat="46.28022926" lon="7.31468456"><ele>1343.579834</ele><time>2009-05-22T11:10:05Z</time></trkpt>
<trkpt lat="46.28017696" lon="7.31462530"><ele>1343.099121</ele><time>2009-05-22T11:10:13Z</time></trkpt>
<trkpt lat="46.28005902" lon="7.31459663"><ele>1342.618652</ele><time>2009-05-22T11:10:22Z</time></trkpt>
<trkpt lat="46.27992885" lon="7.31453452"><ele>1341.657227</ele><time>2009-05-22T11:10:32Z</time></trkpt>
<trkpt lat="46.27983824" lon="7.31451089"><ele>1342.137939</ele><time>2009-05-22T11:10:38Z</time></trkpt>
<trkpt lat="46.27979407" lon="7.31445598"><ele>1341.657227</ele><time>2009-05-22T11:10:42Z</time></trkpt>
<trkpt lat="46.27978217" lon="7.31432959"><ele>1341.657227</ele><time>2009-05-22T11:10:48Z</time></trkpt>
<trkpt lat="46.27983908" lon="7.31399540"><ele>1340.695801</ele><time>2009-05-22T11:11:03Z</time></trkpt>
<trkpt lat="46.27986733" lon="7.31376548"><ele>1339.734375</ele><time>2009-05-22T11:11:16Z</time></trkpt>
<trkpt lat="46.27987077" lon="7.31359349"><ele>1339.253662</ele><time>2009-05-22T11:11:28Z</time></trkpt>
<trkpt lat="46.27988434" lon="7.31333164"><ele>1339.253662</ele><time>2009-05-22T11:11:41Z</time></trkpt>
<trkpt lat="46.27985392" lon="7.31309719"><ele>1338.773193</ele><time>2009-05-22T11:11:56Z</time></trkpt>
<trkpt lat="46.27983397" lon="7.31306459"><ele>1337.811768</ele><time>2009-05-22T11:11:59Z</time></trkpt>
<trkpt lat="46.27980539" lon="7.31301203"><ele>1338.29248</ele><time>2009-05-22T11:12:03Z</time></trkpt>
<trkpt lat="46.27967832" lon="7.31292017"><ele>1337.811768</ele><time>2009-05-22T11:12:19Z</time></trkpt>
<trkpt lat="46.27951386" lon="7.31294154"><ele>1337.331055</ele><time>2009-05-22T11:12:33Z</time></trkpt>
<trkpt lat="46.27944597" lon="7.31300550"><ele>1336.369873</ele><time>2009-05-22T11:12:43Z</time></trkpt>
<trkpt lat="46.27941127" lon="7.31292889"><ele>1335.408447</ele><time>2009-05-22T11:12:54Z</time></trkpt>
<trkpt lat="46.27927808" lon="7.31296618"><ele>1335.88916</ele><time>2009-05-22T11:13:05Z</time></trkpt>
<trkpt lat="46.27915914" lon="7.31298538"><ele>1334.927979</ele><time>2009-05-22T11:13:18Z</time></trkpt>
<trkpt lat="46.27909276" lon="7.31299242"><ele>1334.447266</ele><time>2009-05-22T11:13:25Z</time></trkpt>
<trkpt lat="46.27897843" lon="7.31306199"><ele>1335.408447</ele><time>2009-05-22T11:13:37Z</time></trkpt>
<trkpt lat="46.27900139" lon="7.31309124"><ele>1335.408447</ele><time>2009-05-22T11:14:04Z</time></trkpt>
<trkpt lat="46.27898312" lon="7.31310633"><ele>1335.408447</ele><time>2009-05-22T11:14:07Z</time></trkpt>
<trkpt lat="46.27892294" lon="7.31312335"><ele>1334.927979</ele><time>2009-05-22T11:14:11Z</time></trkpt>
<trkpt lat="46.27880878" lon="7.31315888"><ele>1333.966553</ele><time>2009-05-22T11:14:25Z</time></trkpt>
<trkpt lat="46.27875128" lon="7.31319426"><ele>1334.447266</ele><time>2009-05-22T11:14:32Z</time></trkpt>
<trkpt lat="46.27866612" lon="7.31322653"><ele>1333.966553</ele><time>2009-05-22T11:14:38Z</time></trkpt>
<trkpt lat="46.27857023" lon="7.31327388"><ele>1333.966553</ele><time>2009-05-22T11:14:44Z</time></trkpt>
<trkpt lat="46.27842640" lon="7.31326575"><ele>1334.447266</ele><time>2009-05-22T11:14:58Z</time></trkpt>
<trkpt lat="46.27826806" lon="7.31326617"><ele>1334.447266</ele><time>2009-05-22T11:15:07Z</time></trkpt>
<trkpt lat="46.27811677" lon="7.31320499"><ele>1333.48584</ele><time>2009-05-22T11:15:17Z</time></trkpt>
<trkpt lat="46.27811752" lon="7.31288170"><ele>1333.966553</ele><time>2009-05-22T11:15:35Z</time></trkpt>
<trkpt lat="46.27808265" lon="7.31280140"><ele>1333.48584</ele><time>2009-05-22T11:15:42Z</time></trkpt>
<trkpt lat="46.27803932" lon="7.31274775"><ele>1333.005127</ele><time>2009-05-22T11:15:48Z</time></trkpt>
<trkpt lat="46.27802214" lon="7.31270425"><ele>1333.48584</ele><time>2009-05-22T11:15:51Z</time></trkpt>
<trkpt lat="46.27791669" lon="7.31259805"><ele>1333.005127</ele><time>2009-05-22T11:16:03Z</time></trkpt>
<trkpt lat="46.27789523" lon="7.31255857"><ele>1332.524658</ele><time>2009-05-22T11:16:06Z</time></trkpt>
<trkpt lat="46.27784260" lon="7.31254173"><ele>1333.005127</ele><time>2009-05-22T11:16:10Z</time></trkpt>
<trkpt lat="46.27779189" lon="7.31253024"><ele>1332.524658</ele><time>2009-05-22T11:16:14Z</time></trkpt>
<trkpt lat="46.27774989" lon="7.31249244"><ele>1332.524658</ele><time>2009-05-22T11:16:18Z</time></trkpt>
<trkpt lat="46.27752853" lon="7.31257835"><ele>1330.602051</ele><time>2009-05-22T11:16:31Z</time></trkpt>
<trkpt lat="46.27740716" lon="7.31268086"><ele>1329.159912</ele><time>2009-05-22T11:16:40Z</time></trkpt>
<trkpt lat="46.27736935" lon="7.31265815"><ele>1328.19873</ele><time>2009-05-22T11:16:49Z</time></trkpt>
<trkpt lat="46.27738754" lon="7.31250728"><ele>1328.19873</ele><time>2009-05-22T11:17:03Z</time></trkpt>
<trkpt lat="46.27732409" lon="7.31240937"><ele>1326.756836</ele><time>2009-05-22T11:17:13Z</time></trkpt>
<trkpt lat="46.27718244" lon="7.31232757"><ele>1325.79541</ele><time>2009-05-22T11:17:24Z</time></trkpt>
<trkpt lat="46.27714078" lon="7.31232254"><ele>1325.79541</ele><time>2009-05-22T11:17:27Z</time></trkpt>
<trkpt lat="46.27701765" lon="7.31231022"><ele>1324.834229</ele><time>2009-05-22T11:17:39Z</time></trkpt>
<trkpt lat="46.27701807" lon="7.31232069"><ele>1324.353516</ele><time>2009-05-22T11:17:40Z</time></trkpt>
<trkpt lat="46.27692117" lon="7.31226018"><ele>1324.353516</ele><time>2009-05-22T11:17:48Z</time></trkpt>
<trkpt lat="46.27678254" lon="7.31218784"><ele>1323.872559</ele><time>2009-05-22T11:18:01Z</time></trkpt>
<trkpt lat="46.27667567" lon="7.31213059"><ele>1323.872559</ele><time>2009-05-22T11:18:09Z</time></trkpt>
<trkpt lat="46.27660920" lon="7.31208198"><ele>1322.911377</ele><time>2009-05-22T11:18:14Z</time></trkpt>
<trkpt lat="46.27660216" lon="7.31187260"><ele>1321.469238</ele><time>2009-05-22T11:18:23Z</time></trkpt>
<trkpt lat="46.27657986" lon="7.31184762"><ele>1320.98877</ele><time>2009-05-22T11:18:25Z</time></trkpt>
<trkpt lat="46.27656704" lon="7.31163514"><ele>1319.546875</ele><time>2009-05-22T11:18:37Z</time></trkpt>
<trkpt lat="46.27650887" lon="7.31145199"><ele>1319.066162</ele><time>2009-05-22T11:18:50Z</time></trkpt>
<trkpt lat="46.27649420" lon="7.31139433"><ele>1318.104736</ele><time>2009-05-22T11:18:54Z</time></trkpt>
<trkpt lat="46.27652328" lon="7.31118109"><ele>1318.585449</ele><time>2009-05-22T11:19:05Z</time></trkpt>
<trkpt lat="46.27654248" lon="7.31095905"><ele>1318.104736</ele><time>2009-05-22T11:19:16Z</time></trkpt>
<trkpt lat="46.27651859" lon="7.31074465"><ele>1318.104736</ele><time>2009-05-22T11:19:28Z</time></trkpt>
<trkpt lat="46.27654659" lon="7.31051984"><ele>1317.624023</ele><time>2009-05-22T11:19:40Z</time></trkpt>
<trkpt lat="46.27657173" lon="7.31033645"><ele>1317.624023</ele><time>2009-05-22T11:19:49Z</time></trkpt>
<trkpt lat="46.27665455" lon="7.31014903"><ele>1316.182129</ele><time>2009-05-22T11:19:59Z</time></trkpt>
<trkpt lat="46.27667055" lon="7.31008600"><ele>1316.662842</ele><time>2009-05-22T11:20:03Z</time></trkpt>
<trkpt lat="46.27666553" lon="7.31001542"><ele>1316.662842</ele><time>2009-05-22T11:20:09Z</time></trkpt>
<trkpt lat="46.27664918" lon="7.30979682"><ele>1314.740234</ele><time>2009-05-22T11:20:23Z</time></trkpt>
<trkpt lat="46.27663577" lon="7.30976606"><ele>1315.220947</ele><time>2009-05-22T11:20:26Z</time></trkpt>
<trkpt lat="46.27665279" lon="7.30969355"><ele>1314.740234</ele><time>2009-05-22T11:20:30Z</time></trkpt>
<trkpt lat="46.27669578" lon="7.30951779"><ele>1315.70166</ele><time>2009-05-22T11:20:39Z</time></trkpt>
<trkpt lat="46.27665119" lon="7.30936339"><ele>1315.220947</ele><time>2009-05-22T11:20:51Z</time></trkpt>
<trkpt lat="46.27660928" lon="7.30927588"><ele>1314.740234</ele><time>2009-05-22T11:20:58Z</time></trkpt>
<trkpt lat="46.27669654" lon="7.30892166"><ele>1314.259521</ele><time>2009-05-22T11:21:15Z</time></trkpt>
<trkpt lat="46.27679352" lon="7.30866149"><ele>1313.778809</ele><time>2009-05-22T11:21:31Z</time></trkpt>
<trkpt lat="46.27679218" lon="7.30864657"><ele>1313.778809</ele><time>2009-05-22T11:21:32Z</time></trkpt>
<trkpt lat="46.27680844" lon="7.30845253"><ele>1312.817627</ele><time>2009-05-22T11:21:45Z</time></trkpt>
<trkpt lat="46.27681338" lon="7.30831347"><ele>1312.336914</ele><time>2009-05-22T11:21:54Z</time></trkpt>
<trkpt lat="46.27676703" lon="7.30822697"><ele>1311.856445</ele><time>2009-05-22T11:22:03Z</time></trkpt>
<trkpt lat="46.27675924" lon="7.30822429"><ele>1312.336914</ele><time>2009-05-22T11:22:04Z</time></trkpt>
<trkpt lat="46.27651507" lon="7.30841557"><ele>1312.336914</ele><time>2009-05-22T11:22:18Z</time></trkpt>
<trkpt lat="46.27642044" lon="7.30851774"><ele>1310.89502</ele><time>2009-05-22T11:22:33Z</time></trkpt>
<trkpt lat="46.27617535" lon="7.30888789"><ele>1308.972412</ele><time>2009-05-22T11:22:45Z</time></trkpt>
<trkpt lat="46.27611819" lon="7.30896123"><ele>1308.972412</ele><time>2009-05-22T11:22:49Z</time></trkpt>
<trkpt lat="46.27592213" lon="7.30915837"><ele>1308.491699</ele><time>2009-05-22T11:23:01Z</time></trkpt>
<trkpt lat="46.27577537" lon="7.30918393"><ele>1308.491699</ele><time>2009-05-22T11:23:10Z</time></trkpt>
<trkpt lat="46.27572726" lon="7.30926532"><ele>1308.491699</ele><time>2009-05-22T11:23:13Z</time></trkpt>
<trkpt lat="46.27558200" lon="7.30940773"><ele>1308.491699</ele><time>2009-05-22T11:23:20Z</time></trkpt>
<trkpt lat="46.27534035" lon="7.30964058"><ele>1308.972412</ele><time>2009-05-22T11:23:34Z</time></trkpt>
<trkpt lat="46.27515108" lon="7.30976254"><ele>1308.972412</ele><time>2009-05-22T11:23:45Z</time></trkpt>
<trkpt lat="46.27501169" lon="7.30979850"><ele>1308.972412</ele><time>2009-05-22T11:23:57Z</time></trkpt>
<trkpt lat="46.27502686" lon="7.30978148"><ele>1308.491699</ele><time>2009-05-22T11:24:08Z</time></trkpt>
<trkpt lat="46.27494640" lon="7.30975030"><ele>1308.972412</ele><time>2009-05-22T11:24:18Z</time></trkpt>
<trkpt lat="46.27491748" lon="7.30973546"><ele>1308.972412</ele><time>2009-05-22T11:24:21Z</time></trkpt>
<trkpt lat="46.27480608" lon="7.30944520"><ele>1309.453125</ele><time>2009-05-22T11:24:32Z</time></trkpt>
<trkpt lat="46.27477222" lon="7.30932039"><ele>1309.453125</ele><time>2009-05-22T11:24:38Z</time></trkpt>
<trkpt lat="46.27475294" lon="7.30888453"><ele>1309.933594</ele><time>2009-05-22T11:24:52Z</time></trkpt>
<trkpt lat="46.27462629" lon="7.30875746"><ele>1309.933594</ele><time>2009-05-22T11:25:08Z</time></trkpt>
<trkpt lat="46.27448590" lon="7.30870214"><ele>1309.933594</ele><time>2009-05-22T11:25:22Z</time></trkpt>
<trkpt lat="46.27439043" lon="7.30863165"><ele>1310.414307</ele><time>2009-05-22T11:25:33Z</time></trkpt>
<trkpt lat="46.27436846" lon="7.30858832"><ele>1310.414307</ele><time>2009-05-22T11:25:36Z</time></trkpt>
<trkpt lat="46.27426285" lon="7.30835949"><ele>1309.933594</ele><time>2009-05-22T11:25:51Z</time></trkpt>
<trkpt lat="46.27422027" lon="7.30816377"><ele>1310.414307</ele><time>2009-05-22T11:26:03Z</time></trkpt>
<trkpt lat="46.27420812" lon="7.30804534"><ele>1310.414307</ele><time>2009-05-22T11:26:09Z</time></trkpt>
<trkpt lat="46.27441515" lon="7.30746028"><ele>1310.414307</ele><time>2009-05-22T11:26:25Z</time></trkpt>
<trkpt lat="46.27443979" lon="7.30739222"><ele>1309.453125</ele><time>2009-05-22T11:26:37Z</time></trkpt>
<trkpt lat="46.27442454" lon="7.30732810"><ele>1309.453125</ele><time>2009-05-22T11:27:00Z</time></trkpt>
<trkpt lat="46.27452060" lon="7.30727755"><ele>1309.453125</ele><time>2009-05-22T11:27:51Z</time></trkpt>
<trkpt lat="46.27456930" lon="7.30726272"><ele>1309.453125</ele><time>2009-05-22T11:28:21Z</time></trkpt>
<trkpt lat="46.27460400" lon="7.30724327"><ele>1308.491699</ele><time>2009-05-22T11:29:28Z</time></trkpt>
<trkpt lat="46.27453309" lon="7.30723766"><ele>1309.453125</ele><time>2009-05-22T11:30:07Z</time></trkpt>
<trkpt lat="46.27449067" lon="7.30720430"><ele>1308.972412</ele><time>2009-05-22T11:30:14Z</time></trkpt>
<trkpt lat="46.27446678" lon="7.30717379"><ele>1309.453125</ele><time>2009-05-22T11:30:18Z</time></trkpt>
<trkpt lat="46.27442219" lon="7.30705409"><ele>1308.972412</ele><time>2009-05-22T11:30:28Z</time></trkpt>
<trkpt lat="46.27436603" lon="7.30686072"><ele>1308.972412</ele><time>2009-05-22T11:30:43Z</time></trkpt>
<trkpt lat="46.27434424" lon="7.30680842"><ele>1308.491699</ele><time>2009-05-22T11:30:47Z</time></trkpt>
<trkpt lat="46.27424793" lon="7.30661379"><ele>1308.491699</ele><time>2009-05-22T11:31:03Z</time></trkpt>
<trkpt lat="46.27423863" lon="7.30656937"><ele>1308.491699</ele><time>2009-05-22T11:31:06Z</time></trkpt>
<trkpt lat="46.27424508" lon="7.30645219"><ele>1308.491699</ele><time>2009-05-22T11:31:11Z</time></trkpt>
<trkpt lat="46.27424408" lon="7.30639117"><ele>1308.491699</ele><time>2009-05-22T11:31:14Z</time></trkpt>
<trkpt lat="46.27424768" lon="7.30634993"><ele>1308.491699</ele><time>2009-05-22T11:31:16Z</time></trkpt>
<trkpt lat="46.27421910" lon="7.30610669"><ele>1308.01123</ele><time>2009-05-22T11:31:29Z</time></trkpt>
<trkpt lat="46.27420485" lon="7.30594584"><ele>1308.491699</ele><time>2009-05-22T11:31:37Z</time></trkpt>
<trkpt lat="46.27416898" lon="7.30570352"><ele>1308.01123</ele><time>2009-05-22T11:31:52Z</time></trkpt>
<trkpt lat="46.27417275" lon="7.30541635"><ele>1308.01123</ele><time>2009-05-22T11:32:07Z</time></trkpt>
<trkpt lat="46.27430149" lon="7.30500933"><ele>1308.01123</ele><time>2009-05-22T11:32:27Z</time></trkpt>
<trkpt lat="46.27435547" lon="7.30476449"><ele>1308.01123</ele><time>2009-05-22T11:32:42Z</time></trkpt>
<trkpt lat="46.27451146" lon="7.30453424"><ele>1307.530273</ele><time>2009-05-22T11:32:57Z</time></trkpt>
<trkpt lat="46.27475613" lon="7.30423316"><ele>1307.530273</ele><time>2009-05-22T11:33:22Z</time></trkpt>
<trkpt lat="46.27475839" lon="7.30418027"><ele>1308.01123</ele><time>2009-05-22T11:33:26Z</time></trkpt>
<trkpt lat="46.27456913" lon="7.30426426"><ele>1307.530273</ele><time>2009-05-22T11:33:36Z</time></trkpt>
<trkpt lat="46.27446083" lon="7.30417030"><ele>1307.049561</ele><time>2009-05-22T11:33:47Z</time></trkpt>
<trkpt lat="46.27441113" lon="7.30406594"><ele>1305.607666</ele><time>2009-05-22T11:33:54Z</time></trkpt>
<trkpt lat="46.27443736" lon="7.30362623"><ele>1304.64624</ele><time>2009-05-22T11:34:14Z</time></trkpt>
<trkpt lat="46.27443527" lon="7.30362388"><ele>1305.607666</ele><time>2009-05-22T11:34:16Z</time></trkpt>
<trkpt lat="46.27440794" lon="7.30362497"><ele>1305.607666</ele><time>2009-05-22T11:34:18Z</time></trkpt>
<trkpt lat="46.27437073" lon="7.30361097"><ele>1304.64624</ele><time>2009-05-22T11:34:21Z</time></trkpt>
<trkpt lat="46.27437140" lon="7.30356487"><ele>1304.64624</ele><time>2009-05-22T11:34:23Z</time></trkpt>
<trkpt lat="46.27435690" lon="7.30351333"><ele>1304.64624</ele><time>2009-05-22T11:34:26Z</time></trkpt>
<trkpt lat="46.27434474" lon="7.30348005"><ele>1304.64624</ele><time>2009-05-22T11:34:28Z</time></trkpt>
<trkpt lat="46.27425598" lon="7.30331585"><ele>1304.64624</ele><time>2009-05-22T11:34:42Z</time></trkpt>
<trkpt lat="46.27417099" lon="7.30327964"><ele>1303.685059</ele><time>2009-05-22T11:34:50Z</time></trkpt>
<trkpt lat="46.27400528" lon="7.30322239"><ele>1302.723633</ele><time>2009-05-22T11:35:04Z</time></trkpt>
<trkpt lat="46.27400989" lon="7.30308929"><ele>1300.801025</ele><time>2009-05-22T11:35:13Z</time></trkpt>
<trkpt lat="46.27396077" lon="7.30304570"><ele>1300.801025</ele><time>2009-05-22T11:35:19Z</time></trkpt>
<trkpt lat="46.27394803" lon="7.30300253"><ele>1300.320557</ele><time>2009-05-22T11:35:21Z</time></trkpt>
<trkpt lat="46.27389908" lon="7.30292525"><ele>1300.801025</ele><time>2009-05-22T11:35:26Z</time></trkpt>
<trkpt lat="46.27388106" lon="7.30290254"><ele>1300.801025</ele><time>2009-05-22T11:35:28Z</time></trkpt>
<trkpt lat="46.27365123" lon="7.30283355"><ele>1300.320557</ele><time>2009-05-22T11:35:44Z</time></trkpt>
<trkpt lat="46.27357059" lon="7.30263918"><ele>1299.839844</ele><time>2009-05-22T11:35:56Z</time></trkpt>
<trkpt lat="46.27355316" lon="7.30261437"><ele>1299.839844</ele><time>2009-05-22T11:35:58Z</time></trkpt>
<trkpt lat="46.27348526" lon="7.30256584"><ele>1299.359131</ele><time>2009-05-22T11:36:04Z</time></trkpt>
<trkpt lat="46.27328519" lon="7.30258134"><ele>1298.397705</ele><time>2009-05-22T11:36:17Z</time></trkpt>
<trkpt lat="46.27311026" lon="7.30249425"><ele>1298.397705</ele><time>2009-05-22T11:36:31Z</time></trkpt>
<trkpt lat="46.27313448" lon="7.30236056"><ele>1297.436523</ele><time>2009-05-22T11:36:36Z</time></trkpt>
<trkpt lat="46.27296374" lon="7.30231748"><ele>1297.917236</ele><time>2009-05-22T11:36:52Z</time></trkpt>
<trkpt lat="46.27275956" lon="7.30235419"><ele>1297.436523</ele><time>2009-05-22T11:37:04Z</time></trkpt>
<trkpt lat="46.27259687" lon="7.30235017"><ele>1296.955811</ele><time>2009-05-22T11:37:17Z</time></trkpt>
<trkpt lat="46.27251967" lon="7.30220675"><ele>1297.436523</ele><time>2009-05-22T11:37:27Z</time></trkpt>
<trkpt lat="46.27246879" lon="7.30210014"><ele>1297.436523</ele><time>2009-05-22T11:37:33Z</time></trkpt>
<trkpt lat="46.27246544" lon="7.30205102"><ele>1297.436523</ele><time>2009-05-22T11:37:35Z</time></trkpt>
<trkpt lat="46.27247449" lon="7.30194423"><ele>1297.436523</ele><time>2009-05-22T11:37:38Z</time></trkpt>
<trkpt lat="46.27242286" lon="7.30189838"><ele>1296.955811</ele><time>2009-05-22T11:37:43Z</time></trkpt>
<trkpt lat="46.27237106" lon="7.30185824"><ele>1297.436523</ele><time>2009-05-22T11:37:48Z</time></trkpt>
<trkpt lat="46.27230803" lon="7.30184290"><ele>1297.436523</ele><time>2009-05-22T11:37:54Z</time></trkpt>
<trkpt lat="46.27224952" lon="7.30173536"><ele>1296.955811</ele><time>2009-05-22T11:38:01Z</time></trkpt>
<trkpt lat="46.27221608" lon="7.30164684"><ele>1297.436523</ele><time>2009-05-22T11:38:05Z</time></trkpt>
<trkpt lat="46.27219227" lon="7.30152983"><ele>1296.955811</ele><time>2009-05-22T11:38:10Z</time></trkpt>
<trkpt lat="46.27208490" lon="7.30152539"><ele>1296.475342</ele><time>2009-05-22T11:38:17Z</time></trkpt>
<trkpt lat="46.27197317" lon="7.30155112"><ele>1296.955811</ele><time>2009-05-22T11:38:26Z</time></trkpt>
<trkpt lat="46.27189865" lon="7.30160544"><ele>1296.955811</ele><time>2009-05-22T11:38:41Z</time></trkpt>
<trkpt lat="46.27189228" lon="7.30158113"><ele>1296.955811</ele><time>2009-05-22T11:38:52Z</time></trkpt>
<trkpt lat="46.27187208" lon="7.30161097"><ele>1296.475342</ele><time>2009-05-22T11:38:56Z</time></trkpt>
<trkpt lat="46.27175138" lon="7.30177324"><ele>1295.994629</ele><time>2009-05-22T11:39:12Z</time></trkpt>
<trkpt lat="46.27168022" lon="7.30191733"><ele>1295.994629</ele><time>2009-05-22T11:39:24Z</time></trkpt>
<trkpt lat="46.27167930" lon="7.30196376"><ele>1296.475342</ele><time>2009-05-22T11:39:27Z</time></trkpt>
<trkpt lat="46.27161308" lon="7.30214305"><ele>1295.994629</ele><time>2009-05-22T11:39:38Z</time></trkpt>
<trkpt lat="46.27154066" lon="7.30219150"><ele>1295.994629</ele><time>2009-05-22T11:39:42Z</time></trkpt>
<trkpt lat="46.27148249" lon="7.30224506"><ele>1296.475342</ele><time>2009-05-22T11:39:46Z</time></trkpt>
<trkpt lat="46.27143245" lon="7.30232829"><ele>1295.994629</ele><time>2009-05-22T11:39:51Z</time></trkpt>
<trkpt lat="46.27142784" lon="7.30238244"><ele>1295.513916</ele><time>2009-05-22T11:39:54Z</time></trkpt>
<trkpt lat="46.27132583" lon="7.30250473"><ele>1294.072021</ele><time>2009-05-22T11:40:03Z</time></trkpt>
<trkpt lat="46.27109676" lon="7.30255117"><ele>1294.072021</ele><time>2009-05-22T11:40:17Z</time></trkpt>
<trkpt lat="46.27099022" lon="7.30255653"><ele>1293.110596</ele><time>2009-05-22T11:40:25Z</time></trkpt>
<trkpt lat="46.27086399" lon="7.30256382"><ele>1293.110596</ele><time>2009-05-22T11:40:34Z</time></trkpt>
<trkpt lat="46.27082879" lon="7.30259014"><ele>1293.110596</ele><time>2009-05-22T11:40:37Z</time></trkpt>
<trkpt lat="46.27061144" lon="7.30264756"><ele>1292.630127</ele><time>2009-05-22T11:40:51Z</time></trkpt>
<trkpt lat="46.27048178" lon="7.30270808"><ele>1292.630127</ele><time>2009-05-22T11:41:03Z</time></trkpt>
<trkpt lat="46.27047214" lon="7.30266985"><ele>1292.149414</ele><time>2009-05-22T11:41:12Z</time></trkpt>
<trkpt lat="46.27044716" lon="7.30266583"><ele>1291.668457</ele><time>2009-05-22T11:41:17Z</time></trkpt>
<trkpt lat="46.27033853" lon="7.30273716"><ele>1291.668457</ele><time>2009-05-22T11:41:27Z</time></trkpt>
<trkpt lat="46.27033669" lon="7.30273800"><ele>1291.668457</ele><time>2009-05-22T11:41:44Z</time></trkpt>
<trkpt lat="46.27029813" lon="7.30280522"><ele>1291.668457</ele><time>2009-05-22T11:41:56Z</time></trkpt>
<trkpt lat="46.27027139" lon="7.30282676"><ele>1291.668457</ele><time>2009-05-22T11:41:58Z</time></trkpt>
<trkpt lat="46.27005413" lon="7.30298694"><ele>1291.187744</ele><time>2009-05-22T11:42:14Z</time></trkpt>
<trkpt lat="46.27001348" lon="7.30301033"><ele>1291.187744</ele><time>2009-05-22T11:42:18Z</time></trkpt>
<trkpt lat="46.26994902" lon="7.30303388"><ele>1291.187744</ele><time>2009-05-22T11:42:21Z</time></trkpt>
<trkpt lat="46.26971743" lon="7.30310923"><ele>1291.187744</ele><time>2009-05-22T11:42:33Z</time></trkpt>
<trkpt lat="46.26953068" lon="7.30311108"><ele>1290.707031</ele><time>2009-05-22T11:42:45Z</time></trkpt>
<trkpt lat="46.26941216" lon="7.30311309"><ele>1290.707031</ele><time>2009-05-22T11:42:53Z</time></trkpt>
<trkpt lat="46.26937562" lon="7.30310546"><ele>1290.707031</ele><time>2009-05-22T11:42:56Z</time></trkpt>
<trkpt lat="46.26927068" lon="7.30315852"><ele>1290.707031</ele><time>2009-05-22T11:43:05Z</time></trkpt>
<trkpt lat="46.26915333" lon="7.30319708"><ele>1291.668457</ele><time>2009-05-22T11:43:19Z</time></trkpt>
<trkpt lat="46.26911335" lon="7.30318744"><ele>1290.707031</ele><time>2009-05-22T11:43:31Z</time></trkpt>
<trkpt lat="46.26906104" lon="7.30320965"><ele>1291.187744</ele><time>2009-05-22T11:43:35Z</time></trkpt>
<trkpt lat="46.26898779" lon="7.30322449"><ele>1290.707031</ele><time>2009-05-22T11:43:44Z</time></trkpt>
<trkpt lat="46.26888787" lon="7.30331426"><ele>1291.187744</ele><time>2009-05-22T11:43:56Z</time></trkpt>
<trkpt lat="46.26876877" lon="7.30335776"><ele>1290.226563</ele><time>2009-05-22T11:44:06Z</time></trkpt>
<trkpt lat="46.26866207" lon="7.30340352"><ele>1290.226563</ele><time>2009-05-22T11:44:14Z</time></trkpt>
<trkpt lat="46.26851186" lon="7.30349472"><ele>1290.226563</ele><time>2009-05-22T11:44:26Z</time></trkpt>
<trkpt lat="46.26850474" lon="7.30351743"><ele>1290.226563</ele><time>2009-05-22T11:44:29Z</time></trkpt>
<trkpt lat="46.26850013" lon="7.30362237"><ele>1289.74585</ele><time>2009-05-22T11:44:35Z</time></trkpt>
<trkpt lat="46.26839644" lon="7.30382882"><ele>1289.265137</ele><time>2009-05-22T11:44:48Z</time></trkpt>
<trkpt lat="46.26829167" lon="7.30398682"><ele>1289.74585</ele><time>2009-05-22T11:45:01Z</time></trkpt>
<trkpt lat="46.26823694" lon="7.30412076"><ele>1289.265137</ele><time>2009-05-22T11:45:12Z</time></trkpt>
<trkpt lat="46.26825496" lon="7.30417776"><ele>1288.784668</ele><time>2009-05-22T11:45:16Z</time></trkpt>
<trkpt lat="46.26823744" lon="7.30437205"><ele>1288.303955</ele><time>2009-05-22T11:45:27Z</time></trkpt>
<trkpt lat="46.26822612" lon="7.30447012"><ele>1287.342529</ele><time>2009-05-22T11:45:32Z</time></trkpt>
<trkpt lat="46.26813912" lon="7.30468998"><ele>1287.342529</ele><time>2009-05-22T11:45:42Z</time></trkpt>
<trkpt lat="46.26809042" lon="7.30498628"><ele>1285.900635</ele><time>2009-05-22T11:45:57Z</time></trkpt>
<trkpt lat="46.26804717" lon="7.30501888"><ele>1284.939453</ele><time>2009-05-22T11:46:02Z</time></trkpt>
<trkpt lat="46.26786486" lon="7.30500899"><ele>1284.45874</ele><time>2009-05-22T11:46:15Z</time></trkpt>
<trkpt lat="46.26773276" lon="7.30491855"><ele>1283.978027</ele><time>2009-05-22T11:46:28Z</time></trkpt>
<trkpt lat="46.26770427" lon="7.30490028"><ele>1284.45874</ele><time>2009-05-22T11:46:30Z</time></trkpt>
<trkpt lat="46.26751995" lon="7.30474882"><ele>1284.45874</ele><time>2009-05-22T11:46:44Z</time></trkpt>
<trkpt lat="46.26744837" lon="7.30463558"><ele>1284.45874</ele><time>2009-05-22T11:46:52Z</time></trkpt>
<trkpt lat="46.26734418" lon="7.30448194"><ele>1284.45874</ele><time>2009-05-22T11:47:06Z</time></trkpt>
<trkpt lat="46.26725047" lon="7.30440835"><ele>1283.016602</ele><time>2009-05-22T11:47:15Z</time></trkpt>
<trkpt lat="46.26719959" lon="7.30416083"><ele>1283.016602</ele><time>2009-05-22T11:47:29Z</time></trkpt>
<trkpt lat="46.26717604" lon="7.30412998"><ele>1283.016602</ele><time>2009-05-22T11:47:32Z</time></trkpt>
<trkpt lat="46.26714377" lon="7.30408346"><ele>1282.536133</ele><time>2009-05-22T11:47:38Z</time></trkpt>
<trkpt lat="46.26707814" lon="7.30399302"><ele>1282.05542</ele><time>2009-05-22T11:47:46Z</time></trkpt>
<trkpt lat="46.26691285" lon="7.30382773"><ele>1282.05542</ele><time>2009-05-22T11:48:02Z</time></trkpt>
<trkpt lat="46.26688745" lon="7.30380544"><ele>1282.05542</ele><time>2009-05-22T11:48:04Z</time></trkpt>
<trkpt lat="46.26679466" lon="7.30375020"><ele>1282.05542</ele><time>2009-05-22T11:48:10Z</time></trkpt>
<trkpt lat="46.26659844" lon="7.30365817"><ele>1282.05542</ele><time>2009-05-22T11:48:26Z</time></trkpt>
<trkpt lat="46.26640549" lon="7.30349497"><ele>1281.574707</ele><time>2009-05-22T11:48:44Z</time></trkpt>
<trkpt lat="46.26629158" lon="7.30331006"><ele>1282.05542</ele><time>2009-05-22T11:48:59Z</time></trkpt>
<trkpt lat="46.26612377" lon="7.30314025"><ele>1281.574707</ele><time>2009-05-22T11:49:13Z</time></trkpt>
<trkpt lat="46.26608488" lon="7.30297429"><ele>1281.094238</ele><time>2009-05-22T11:49:25Z</time></trkpt>
<trkpt lat="46.26607432" lon="7.30296507"><ele>1281.574707</ele><time>2009-05-22T11:49:26Z</time></trkpt>
<trkpt lat="46.26598153" lon="7.30288644"><ele>1281.094238</ele><time>2009-05-22T11:49:38Z</time></trkpt>
<trkpt lat="46.26593208" lon="7.30289692"><ele>1281.094238</ele><time>2009-05-22T11:49:43Z</time></trkpt>
<trkpt lat="46.26584298" lon="7.30289885"><ele>1281.094238</ele><time>2009-05-22T11:49:51Z</time></trkpt>
<trkpt lat="46.26573376" lon="7.30293749"><ele>1280.613525</ele><time>2009-05-22T11:50:05Z</time></trkpt>
<trkpt lat="46.26560745" lon="7.30297739"><ele>1280.613525</ele><time>2009-05-22T11:50:17Z</time></trkpt>
<trkpt lat="46.26542623" lon="7.30303732"><ele>1280.613525</ele><time>2009-05-22T11:50:30Z</time></trkpt>
<trkpt lat="46.26531685" lon="7.30307227"><ele>1280.132813</ele><time>2009-05-22T11:50:40Z</time></trkpt>
<trkpt lat="46.26520646" lon="7.30319465"><ele>1280.132813</ele><time>2009-05-22T11:50:54Z</time></trkpt>
<trkpt lat="46.26504008" lon="7.30324812"><ele>1280.132813</ele><time>2009-05-22T11:51:06Z</time></trkpt>
<trkpt lat="46.26502533" lon="7.30325064"><ele>1280.132813</ele><time>2009-05-22T11:51:07Z</time></trkpt>
<trkpt lat="46.26490672" lon="7.30321443"><ele>1279.171387</ele><time>2009-05-22T11:51:17Z</time></trkpt>
<trkpt lat="46.26480245" lon="7.30311627"><ele>1279.171387</ele><time>2009-05-22T11:51:31Z</time></trkpt>
<trkpt lat="46.26475266" lon="7.30308476"><ele>1279.171387</ele><time>2009-05-22T11:51:35Z</time></trkpt>
<trkpt lat="46.26467949" lon="7.30290782"><ele>1278.690918</ele><time>2009-05-22T11:51:49Z</time></trkpt>
<trkpt lat="46.26454647" lon="7.30278075"><ele>1277.249023</ele><time>2009-05-22T11:52:03Z</time></trkpt>
<trkpt lat="46.26446994" lon="7.30261487"><ele>1279.6521</ele><time>2009-05-22T11:52:17Z</time></trkpt>
<trkpt lat="46.26452300" lon="7.30253415"><ele>1281.574707</ele><time>2009-05-22T11:52:28Z</time></trkpt>
<trkpt lat="46.26455108" lon="7.30243256"><ele>1281.094238</ele><time>2009-05-22T11:52:40Z</time></trkpt>
<trkpt lat="46.26455653" lon="7.30241362"><ele>1280.613525</ele><time>2009-05-22T11:52:41Z</time></trkpt>
<trkpt lat="46.26455954" lon="7.30233056"><ele>1280.613525</ele><time>2009-05-22T11:52:45Z</time></trkpt>
<trkpt lat="46.26456650" lon="7.30227532"><ele>1281.094238</ele><time>2009-05-22T11:52:48Z</time></trkpt>
<trkpt lat="46.26464722" lon="7.30215395"><ele>1283.016602</ele><time>2009-05-22T11:53:02Z</time></trkpt>
<trkpt lat="46.26473456" lon="7.30208748"><ele>1284.45874</ele><time>2009-05-22T11:53:15Z</time></trkpt>
<trkpt lat="46.26483589" lon="7.30194658"><ele>1286.861816</ele><time>2009-05-22T11:53:34Z</time></trkpt>
<trkpt lat="46.26491686" lon="7.30186620"><ele>1289.265137</ele><time>2009-05-22T11:53:52Z</time></trkpt>
<trkpt lat="46.26501619" lon="7.30179043"><ele>1292.149414</ele><time>2009-05-22T11:54:07Z</time></trkpt>
<trkpt lat="46.26507905" lon="7.30173469"><ele>1294.55249</ele><time>2009-05-22T11:54:26Z</time></trkpt>
<trkpt lat="46.26508727" lon="7.30173837"><ele>1295.033203</ele><time>2009-05-22T11:54:47Z</time></trkpt>
<trkpt lat="46.26509347" lon="7.30164098"><ele>1294.072021</ele><time>2009-05-22T11:55:00Z</time></trkpt>
<trkpt lat="46.26508266" lon="7.30159295"><ele>1294.55249</ele><time>2009-05-22T11:55:13Z</time></trkpt>
<trkpt lat="46.26509079" lon="7.30149278"><ele>1294.072021</ele><time>2009-05-22T11:55:32Z</time></trkpt>
<trkpt lat="46.26511166" lon="7.30141324"><ele>1295.513916</ele><time>2009-05-22T11:55:43Z</time></trkpt>
<trkpt lat="46.26516128" lon="7.30168465"><ele>1295.033203</ele><time>2009-05-22T11:56:01Z</time></trkpt>
<trkpt lat="46.26530855" lon="7.30204943"><ele>1296.475342</ele><time>2009-05-22T11:56:26Z</time></trkpt>
<trkpt lat="46.26543654" lon="7.30234665"><ele>1296.475342</ele><time>2009-05-22T11:56:48Z</time></trkpt>
<trkpt lat="46.26548608" lon="7.30241228"><ele>1296.955811</ele><time>2009-05-22T11:57:01Z</time></trkpt>
<trkpt lat="46.26550075" lon="7.30241882"><ele>1296.475342</ele><time>2009-05-22T11:57:26Z</time></trkpt>
<trkpt lat="46.26550678" lon="7.30241194"><ele>1295.994629</ele><time>2009-05-22T11:58:03Z</time></trkpt>
<trkpt lat="46.26549790" lon="7.30240054"><ele>1295.994629</ele><time>2009-05-22T11:58:17Z</time></trkpt>
<trkpt lat="46.26551265" lon="7.30235319"><ele>1296.475342</ele><time>2009-05-22T11:58:28Z</time></trkpt>
<trkpt lat="46.26560326" lon="7.30232008"><ele>1299.839844</ele><time>2009-05-22T11:58:42Z</time></trkpt>
<trkpt lat="46.26573552" lon="7.30220810"><ele>1302.24292</ele><time>2009-05-22T11:59:01Z</time></trkpt>
<trkpt lat="46.26582018" lon="7.30210559"><ele>1305.126953</ele><time>2009-05-22T11:59:16Z</time></trkpt>
<trkpt lat="46.26590568" lon="7.30203576"><ele>1307.049561</ele><time>2009-05-22T11:59:29Z</time></trkpt>
<trkpt lat="46.26595982" lon="7.30198178"><ele>1308.491699</ele><time>2009-05-22T11:59:39Z</time></trkpt>
<trkpt lat="46.26597525" lon="7.30197500"><ele>1309.933594</ele><time>2009-05-22T11:59:41Z</time></trkpt>
<trkpt lat="46.26604725" lon="7.30195052"><ele>1310.89502</ele><time>2009-05-22T11:59:50Z</time></trkpt>
<trkpt lat="46.26615009" lon="7.30190165"><ele>1312.817627</ele><time>2009-05-22T12:00:02Z</time></trkpt>
<trkpt lat="46.26620793" lon="7.30188246"><ele>1314.740234</ele><time>2009-05-22T12:00:10Z</time></trkpt>
<trkpt lat="46.26626040" lon="7.30183150"><ele>1315.220947</ele><time>2009-05-22T12:00:16Z</time></trkpt>
<trkpt lat="46.26630105" lon="7.30182538"><ele>1318.104736</ele><time>2009-05-22T12:00:27Z</time></trkpt>
<trkpt lat="46.26629736" lon="7.30178230"><ele>1319.066162</ele><time>2009-05-22T12:00:30Z</time></trkpt>
<trkpt lat="46.26629644" lon="7.30167878"><ele>1321.949951</ele><time>2009-05-22T12:00:42Z</time></trkpt>
<trkpt lat="46.26631396" lon="7.30166713"><ele>1322.430664</ele><time>2009-05-22T12:00:45Z</time></trkpt>
<trkpt lat="46.26640080" lon="7.30166679"><ele>1323.39209</ele><time>2009-05-22T12:00:55Z</time></trkpt>
<trkpt lat="46.26646282" lon="7.30160317"><ele>1326.756836</ele><time>2009-05-22T12:01:08Z</time></trkpt>
<trkpt lat="46.26657975" lon="7.30155850"><ele>1327.718018</ele><time>2009-05-22T12:01:25Z</time></trkpt>
<trkpt lat="46.26659400" lon="7.30155850"><ele>1328.19873</ele><time>2009-05-22T12:01:29Z</time></trkpt>
<trkpt lat="46.26664890" lon="7.30155649"><ele>1330.602051</ele><time>2009-05-22T12:01:39Z</time></trkpt>
<trkpt lat="46.26674353" lon="7.30149790"><ele>1333.005127</ele><time>2009-05-22T12:01:55Z</time></trkpt>
<trkpt lat="46.26682676" lon="7.30151818"><ele>1335.88916</ele><time>2009-05-22T12:02:10Z</time></trkpt>
<trkpt lat="46.26692223" lon="7.30150854"><ele>1337.331055</ele><time>2009-05-22T12:02:22Z</time></trkpt>
<trkpt lat="46.26700664" lon="7.30149589"><ele>1338.29248</ele><time>2009-05-22T12:02:34Z</time></trkpt>
<trkpt lat="46.26706288" lon="7.30151357"><ele>1339.734375</ele><time>2009-05-22T12:02:48Z</time></trkpt>
<trkpt lat="46.26718869" lon="7.30153394"><ele>1341.657227</ele><time>2009-05-22T12:03:00Z</time></trkpt>
<trkpt lat="46.26726824" lon="7.30157509"><ele>1344.541016</ele><time>2009-05-22T12:03:13Z</time></trkpt>
<trkpt lat="46.26728157" lon="7.30156939"><ele>1345.502441</ele><time>2009-05-22T12:03:15Z</time></trkpt>
<trkpt lat="46.26737729" lon="7.30160653"><ele>1347.425049</ele><time>2009-05-22T12:03:26Z</time></trkpt>
<trkpt lat="46.26743219" lon="7.30164634"><ele>1349.828369</ele><time>2009-05-22T12:03:39Z</time></trkpt>
<trkpt lat="46.26749899" lon="7.30172454"><ele>1352.712158</ele><time>2009-05-22T12:03:51Z</time></trkpt>
<trkpt lat="46.26757988" lon="7.30181188"><ele>1355.596191</ele><time>2009-05-22T12:04:04Z</time></trkpt>
<trkpt lat="46.26766965" lon="7.30181783"><ele>1357.519043</ele><time>2009-05-22T12:04:15Z</time></trkpt>
<trkpt lat="46.26777928" lon="7.30181406"><ele>1358.480225</ele><time>2009-05-22T12:04:26Z</time></trkpt>
<trkpt lat="46.26781574" lon="7.30183518"><ele>1357.999756</ele><time>2009-05-22T12:04:32Z</time></trkpt>
<trkpt lat="46.26786335" lon="7.30187709"><ele>1358.960938</ele><time>2009-05-22T12:04:37Z</time></trkpt>
<trkpt lat="46.26791666" lon="7.30201238"><ele>1361.364258</ele><time>2009-05-22T12:04:49Z</time></trkpt>
<trkpt lat="46.26798280" lon="7.30206493"><ele>1363.767334</ele><time>2009-05-22T12:04:59Z</time></trkpt>
<trkpt lat="46.26808514" lon="7.30205915"><ele>1365.209473</ele><time>2009-05-22T12:05:14Z</time></trkpt>
<trkpt lat="46.26809604" lon="7.30204113"><ele>1365.209473</ele><time>2009-05-22T12:05:16Z</time></trkpt>
<trkpt lat="46.26812269" lon="7.30202252"><ele>1365.690186</ele><time>2009-05-22T12:05:19Z</time></trkpt>
<trkpt lat="46.26819033" lon="7.30193652"><ele>1367.612549</ele><time>2009-05-22T12:05:31Z</time></trkpt>
<trkpt lat="46.26823476" lon="7.30184600"><ele>1368.573975</ele><time>2009-05-22T12:05:41Z</time></trkpt>
<trkpt lat="46.26826979" lon="7.30176947"><ele>1370.015869</ele><time>2009-05-22T12:05:51Z</time></trkpt>
<trkpt lat="46.26830407" lon="7.30170694"><ele>1371.457764</ele><time>2009-05-22T12:06:01Z</time></trkpt>
<trkpt lat="46.26834649" lon="7.30161340"><ele>1374.342041</ele><time>2009-05-22T12:06:13Z</time></trkpt>
<trkpt lat="46.26839728" lon="7.30153142"><ele>1377.226074</ele><time>2009-05-22T12:06:24Z</time></trkpt>
<trkpt lat="46.26847666" lon="7.30144903"><ele>1380.109863</ele><time>2009-05-22T12:06:38Z</time></trkpt>
<trkpt lat="46.26853525" lon="7.30139195"><ele>1382.032471</ele><time>2009-05-22T12:06:48Z</time></trkpt>
<trkpt lat="46.26860968" lon="7.30128382"><ele>1382.993652</ele><time>2009-05-22T12:07:02Z</time></trkpt>
<trkpt lat="46.26866567" lon="7.30121509"><ele>1383.474365</ele><time>2009-05-22T12:07:10Z</time></trkpt>
<trkpt lat="46.26875368" lon="7.30113194"><ele>1385.877686</ele><time>2009-05-22T12:07:22Z</time></trkpt>
<trkpt lat="46.26883917" lon="7.30108274"><ele>1387.800293</ele><time>2009-05-22T12:07:40Z</time></trkpt>
<trkpt lat="46.26888142" lon="7.30106506"><ele>1388.761963</ele><time>2009-05-22T12:07:45Z</time></trkpt>
<trkpt lat="46.26899659" lon="7.30098534"><ele>1390.684326</ele><time>2009-05-22T12:08:00Z</time></trkpt>
<trkpt lat="46.26909113" lon="7.30097042"><ele>1391.165039</ele><time>2009-05-22T12:08:09Z</time></trkpt>
<trkpt lat="46.26911997" lon="7.30096472"><ele>1392.126465</ele><time>2009-05-22T12:08:12Z</time></trkpt>
<trkpt lat="46.26920974" lon="7.30090697"><ele>1392.607178</ele><time>2009-05-22T12:08:20Z</time></trkpt>
<trkpt lat="46.26929909" lon="7.30083162"><ele>1393.087646</ele><time>2009-05-22T12:08:33Z</time></trkpt>
<trkpt lat="46.26940562" lon="7.30077303"><ele>1395.97168</ele><time>2009-05-22T12:08:45Z</time></trkpt>
<trkpt lat="46.26957485" lon="7.30067546"><ele>1397.894287</ele><time>2009-05-22T12:09:03Z</time></trkpt>
<trkpt lat="46.26967938" lon="7.30056658"><ele>1398.374756</ele><time>2009-05-22T12:09:23Z</time></trkpt>
<trkpt lat="46.26968290" lon="7.30054320"><ele>1396.932861</ele><time>2009-05-22T12:09:53Z</time></trkpt>
<trkpt lat="46.26967778" lon="7.30055669"><ele>518.287842</ele><time>2009-05-22T21:55:54Z</time></trkpt>
<trkpt lat="46.26967778" lon="7.30055669"><ele>500.50354</ele><time>2009-05-22T21:55:55Z</time></trkpt>
<trkpt lat="46.26967778" lon="7.30055669"><ele>500.022949</ele><time>2009-05-22T21:55:57Z</time></trkpt>
<trkpt lat="46.26967778" lon="7.30055669"><ele>502.906738</ele><time>2009-05-22T21:56:08Z</time></trkpt>
<trkpt lat="46.26967778" lon="7.30055669"><ele>500.984131</ele><time>2009-05-22T21:56:09Z</time></trkpt>
<trkpt lat="46.26967778" lon="7.30055669"><ele>499.061523</ele><time>2009-05-22T21:56:10Z</time></trkpt>
<trkpt lat="46.26967778" lon="7.30055669"><ele>503.387451</ele><time>2009-05-22T21:56:11Z</time></trkpt>
<trkpt lat="46.26967778" lon="7.30055669"><ele>500.984131</ele><time>2009-05-22T21:56:12Z</time></trkpt>
<trkpt lat="46.26967778" lon="7.30055669"><ele>500.022949</ele><time>2009-05-22T21:56:17Z</time></trkpt>
<trkpt lat="46.26967778" lon="7.30055669"><ele>501.464844</ele><time>2009-05-22T21:56:18Z</time></trkpt>
<trkpt lat="46.26967778" lon="7.30055669"><ele>501.464844</ele><time>2009-05-22T21:56:20Z</time></trkpt>
<trkpt lat="46.26967778" lon="7.30055669"><ele>500.984131</ele><time>2009-05-22T21:57:05Z</time></trkpt>
<trkpt lat="46.26967778" lon="7.30055669"><ele>507.232788</ele><time>2009-05-29T14:46:54Z</time></trkpt>
<trkpt lat="46.26967778" lon="7.30055669"><ele>452.437622</ele><time>2009-05-29T14:46:55Z</time></trkpt>
<trkpt lat="46.26967778" lon="7.30055669"><ele>452.918213</ele><time>2009-05-29T14:47:18Z</time></trkpt>
<trkpt lat="46.26967778" lon="7.30055669"><ele>451.476318</ele><time>2009-05-29T14:47:19Z</time></trkpt>
<trkpt lat="46.26967778" lon="7.30055669"><ele>452.437622</ele><time>2009-05-29T14:47:44Z</time></trkpt>
<trkpt lat="46.26967778" lon="7.30055669"><ele>452.437622</ele><time>2009-05-29T14:48:17Z</time></trkpt>
</trkseg></trk></gpx>